<?xml version="1.0" encoding="UTF-8" standalone="no" ?>
<gpx xmlns="http://www.topografix.com/GPX/1/1" xmlns:xsi="http://www.w3.org/2001/XMLSchema-instance" xsi:schemaLocation="http://www.topografix.com/GPX/1/1 http://www.topografix.com/GPX/1/1/gpx.xsd" version="1.1" creator="VisuGPX - https://www.visugpx.com">
  <metadata>
    <name>Le tour du mail des moréres-2019-09-28-135911</name>
    <desc><![CDATA[[b][i][url][img][/img][/url][/i][/b]]]></desc>
  </metadata>
  <trk>
    <name><![CDATA[MA-Rando-2019-09-28-135911]]></name>
    <trkseg>
      <trkpt lat="42.87445" lon="0.95433">
        <ele>736</ele>
        <time>2019-09-28T07:33:07Z</time>
      </trkpt>
      <trkpt lat="42.87448" lon="0.95445">
        <ele>732</ele>
        <time>2019-09-28T07:37:37Z</time>
      </trkpt>
      <trkpt lat="42.87456" lon="0.95437">
        <ele>733</ele>
        <time>2019-09-28T07:37:47Z</time>
      </trkpt>
      <trkpt lat="42.87464" lon="0.9543">
        <ele>733</ele>
        <time>2019-09-28T07:37:54Z</time>
      </trkpt>
      <trkpt lat="42.87471" lon="0.95422">
        <ele>734</ele>
        <time>2019-09-28T07:38:03Z</time>
      </trkpt>
      <trkpt lat="42.87473" lon="0.95409">
        <ele>738</ele>
        <time>2019-09-28T07:38:11Z</time>
      </trkpt>
      <trkpt lat="42.8747" lon="0.95398">
        <ele>737</ele>
        <time>2019-09-28T07:38:18Z</time>
      </trkpt>
      <trkpt lat="42.87468" lon="0.95383">
        <ele>737</ele>
        <time>2019-09-28T07:38:25Z</time>
      </trkpt>
      <trkpt lat="42.87472" lon="0.95371">
        <ele>734</ele>
        <time>2019-09-28T07:38:34Z</time>
      </trkpt>
      <trkpt lat="42.87468" lon="0.95359">
        <ele>734</ele>
        <time>2019-09-28T07:38:47Z</time>
      </trkpt>
      <trkpt lat="42.87472" lon="0.95348">
        <ele>735</ele>
        <time>2019-09-28T07:38:56Z</time>
      </trkpt>
      <trkpt lat="42.87477" lon="0.95337">
        <ele>734</ele>
        <time>2019-09-28T07:39:02Z</time>
      </trkpt>
      <trkpt lat="42.87486" lon="0.95331">
        <ele>735</ele>
        <time>2019-09-28T07:39:07Z</time>
      </trkpt>
      <trkpt lat="42.87494" lon="0.95327">
        <ele>732</ele>
        <time>2019-09-28T07:39:18Z</time>
      </trkpt>
      <trkpt lat="42.87495" lon="0.95312">
        <ele>734</ele>
        <time>2019-09-28T07:39:23Z</time>
      </trkpt>
      <trkpt lat="42.87502" lon="0.95303">
        <ele>736</ele>
        <time>2019-09-28T07:39:35Z</time>
      </trkpt>
      <trkpt lat="42.8751" lon="0.95295">
        <ele>737</ele>
        <time>2019-09-28T07:39:42Z</time>
      </trkpt>
      <trkpt lat="42.87519" lon="0.95301">
        <ele>734</ele>
        <time>2019-09-28T07:39:52Z</time>
      </trkpt>
      <trkpt lat="42.87528" lon="0.95297">
        <ele>735</ele>
        <time>2019-09-28T07:39:59Z</time>
      </trkpt>
      <trkpt lat="42.87538" lon="0.95294">
        <ele>744</ele>
        <time>2019-09-28T07:40:14Z</time>
      </trkpt>
      <trkpt lat="42.87548" lon="0.95292">
        <ele>744</ele>
        <time>2019-09-28T07:40:24Z</time>
      </trkpt>
      <trkpt lat="42.87559" lon="0.95293">
        <ele>740</ele>
        <time>2019-09-28T07:40:31Z</time>
      </trkpt>
      <trkpt lat="42.87563" lon="0.95281">
        <ele>737</ele>
        <time>2019-09-28T07:40:46Z</time>
      </trkpt>
      <trkpt lat="42.87563" lon="0.95267">
        <ele>740</ele>
        <time>2019-09-28T07:40:54Z</time>
      </trkpt>
      <trkpt lat="42.87565" lon="0.95255">
        <ele>742</ele>
        <time>2019-09-28T07:41:02Z</time>
      </trkpt>
      <trkpt lat="42.87564" lon="0.95243">
        <ele>741</ele>
        <time>2019-09-28T07:41:11Z</time>
      </trkpt>
      <trkpt lat="42.87564" lon="0.9523">
        <ele>742</ele>
        <time>2019-09-28T07:41:23Z</time>
      </trkpt>
      <trkpt lat="42.87567" lon="0.95217">
        <ele>741</ele>
        <time>2019-09-28T07:41:32Z</time>
      </trkpt>
      <trkpt lat="42.87568" lon="0.95205">
        <ele>742</ele>
        <time>2019-09-28T07:41:43Z</time>
      </trkpt>
      <trkpt lat="42.87572" lon="0.95192">
        <ele>741</ele>
        <time>2019-09-28T07:41:53Z</time>
      </trkpt>
      <trkpt lat="42.87579" lon="0.95183">
        <ele>740</ele>
        <time>2019-09-28T07:42:03Z</time>
      </trkpt>
      <trkpt lat="42.87582" lon="0.9517">
        <ele>742</ele>
        <time>2019-09-28T07:42:12Z</time>
      </trkpt>
      <trkpt lat="42.87587" lon="0.9516">
        <ele>746</ele>
        <time>2019-09-28T07:42:20Z</time>
      </trkpt>
      <trkpt lat="42.87592" lon="0.9515">
        <ele>747</ele>
        <time>2019-09-28T07:42:32Z</time>
      </trkpt>
      <trkpt lat="42.87598" lon="0.95141">
        <ele>746</ele>
        <time>2019-09-28T07:42:43Z</time>
      </trkpt>
      <trkpt lat="42.87603" lon="0.9513">
        <ele>749</ele>
        <time>2019-09-28T07:42:54Z</time>
      </trkpt>
      <trkpt lat="42.87608" lon="0.9512">
        <ele>751</ele>
        <time>2019-09-28T07:43:03Z</time>
      </trkpt>
      <trkpt lat="42.87613" lon="0.95106">
        <ele>750</ele>
        <time>2019-09-28T07:43:15Z</time>
      </trkpt>
      <trkpt lat="42.87614" lon="0.95094">
        <ele>750</ele>
        <time>2019-09-28T07:43:26Z</time>
      </trkpt>
      <trkpt lat="42.87621" lon="0.95085">
        <ele>751</ele>
        <time>2019-09-28T07:43:34Z</time>
      </trkpt>
      <trkpt lat="42.87629" lon="0.95075">
        <ele>750</ele>
        <time>2019-09-28T07:43:44Z</time>
      </trkpt>
      <trkpt lat="42.87628" lon="0.95061">
        <ele>752</ele>
        <time>2019-09-28T07:43:53Z</time>
      </trkpt>
      <trkpt lat="42.87638" lon="0.95065">
        <ele>749</ele>
        <time>2019-09-28T07:43:57Z</time>
      </trkpt>
      <trkpt lat="42.87642" lon="0.95052">
        <ele>754</ele>
        <time>2019-09-28T07:44:06Z</time>
      </trkpt>
      <trkpt lat="42.87644" lon="0.9504">
        <ele>756</ele>
        <time>2019-09-28T07:44:13Z</time>
      </trkpt>
      <trkpt lat="42.87647" lon="0.95028">
        <ele>753</ele>
        <time>2019-09-28T07:44:23Z</time>
      </trkpt>
      <trkpt lat="42.87655" lon="0.95021">
        <ele>754</ele>
        <time>2019-09-28T07:44:33Z</time>
      </trkpt>
      <trkpt lat="42.87663" lon="0.95014">
        <ele>753</ele>
        <time>2019-09-28T07:44:41Z</time>
      </trkpt>
      <trkpt lat="42.87672" lon="0.95009">
        <ele>754</ele>
        <time>2019-09-28T07:44:50Z</time>
      </trkpt>
      <trkpt lat="42.87682" lon="0.95003">
        <ele>760</ele>
        <time>2019-09-28T07:45:03Z</time>
      </trkpt>
      <trkpt lat="42.87691" lon="0.95003">
        <ele>759</ele>
        <time>2019-09-28T07:45:11Z</time>
      </trkpt>
      <trkpt lat="42.87701" lon="0.95002">
        <ele>762</ele>
        <time>2019-09-28T07:45:21Z</time>
      </trkpt>
      <trkpt lat="42.87712" lon="0.94999">
        <ele>760</ele>
        <time>2019-09-28T07:45:30Z</time>
      </trkpt>
      <trkpt lat="42.87721" lon="0.94992">
        <ele>758</ele>
        <time>2019-09-28T07:45:40Z</time>
      </trkpt>
      <trkpt lat="42.87728" lon="0.94983">
        <ele>760</ele>
        <time>2019-09-28T07:45:48Z</time>
      </trkpt>
      <trkpt lat="42.87726" lon="0.94971">
        <ele>757</ele>
        <time>2019-09-28T07:45:59Z</time>
      </trkpt>
      <trkpt lat="42.87736" lon="0.94949">
        <ele>766</ele>
        <time>2019-09-28T07:46:41Z</time>
      </trkpt>
      <trkpt lat="42.87742" lon="0.94938">
        <ele>766</ele>
        <time>2019-09-28T07:46:48Z</time>
      </trkpt>
      <trkpt lat="42.87748" lon="0.94928">
        <ele>769</ele>
        <time>2019-09-28T07:46:54Z</time>
      </trkpt>
      <trkpt lat="42.8775" lon="0.94916">
        <ele>770</ele>
        <time>2019-09-28T07:47:05Z</time>
      </trkpt>
      <trkpt lat="42.87753" lon="0.94904">
        <ele>775</ele>
        <time>2019-09-28T07:47:20Z</time>
      </trkpt>
      <trkpt lat="42.87747" lon="0.94894">
        <ele>781</ele>
        <time>2019-09-28T07:47:31Z</time>
      </trkpt>
      <trkpt lat="42.87743" lon="0.94883">
        <ele>785</ele>
        <time>2019-09-28T07:47:46Z</time>
      </trkpt>
      <trkpt lat="42.87738" lon="0.94871">
        <ele>786</ele>
        <time>2019-09-28T07:48:00Z</time>
      </trkpt>
      <trkpt lat="42.87743" lon="0.94858">
        <ele>798</ele>
        <time>2019-09-28T07:50:23Z</time>
      </trkpt>
      <trkpt lat="42.87752" lon="0.94852">
        <ele>809</ele>
        <time>2019-09-28T07:50:49Z</time>
      </trkpt>
      <trkpt lat="42.8776" lon="0.94847">
        <ele>808</ele>
        <time>2019-09-28T07:51:15Z</time>
      </trkpt>
      <trkpt lat="42.87767" lon="0.94838">
        <ele>810</ele>
        <time>2019-09-28T07:51:22Z</time>
      </trkpt>
      <trkpt lat="42.87776" lon="0.94839">
        <ele>814</ele>
        <time>2019-09-28T07:51:42Z</time>
      </trkpt>
      <trkpt lat="42.87783" lon="0.94828">
        <ele>817</ele>
        <time>2019-09-28T07:52:00Z</time>
      </trkpt>
      <trkpt lat="42.87786" lon="0.94814">
        <ele>818</ele>
        <time>2019-09-28T07:52:08Z</time>
      </trkpt>
      <trkpt lat="42.87782" lon="0.94802">
        <ele>818</ele>
        <time>2019-09-28T07:52:21Z</time>
      </trkpt>
      <trkpt lat="42.87783" lon="0.9479">
        <ele>818</ele>
        <time>2019-09-28T07:52:32Z</time>
      </trkpt>
      <trkpt lat="42.87781" lon="0.94778">
        <ele>820</ele>
        <time>2019-09-28T07:52:45Z</time>
      </trkpt>
      <trkpt lat="42.87779" lon="0.94765">
        <ele>826</ele>
        <time>2019-09-28T07:52:57Z</time>
      </trkpt>
      <trkpt lat="42.87781" lon="0.94753">
        <ele>830</ele>
        <time>2019-09-28T07:53:09Z</time>
      </trkpt>
      <trkpt lat="42.87784" lon="0.94741">
        <ele>830</ele>
        <time>2019-09-28T07:53:21Z</time>
      </trkpt>
      <trkpt lat="42.87791" lon="0.94734">
        <ele>832</ele>
        <time>2019-09-28T07:53:40Z</time>
      </trkpt>
      <trkpt lat="42.878" lon="0.94732">
        <ele>836</ele>
        <time>2019-09-28T07:53:54Z</time>
      </trkpt>
      <trkpt lat="42.87809" lon="0.94732">
        <ele>837</ele>
        <time>2019-09-28T07:54:07Z</time>
      </trkpt>
      <trkpt lat="42.87818" lon="0.94734">
        <ele>840</ele>
        <time>2019-09-28T07:54:21Z</time>
      </trkpt>
      <trkpt lat="42.87827" lon="0.94732">
        <ele>844</ele>
        <time>2019-09-28T07:54:35Z</time>
      </trkpt>
      <trkpt lat="42.87836" lon="0.94734">
        <ele>846</ele>
        <time>2019-09-28T07:54:50Z</time>
      </trkpt>
      <trkpt lat="42.87845" lon="0.94729">
        <ele>848</ele>
        <time>2019-09-28T07:55:01Z</time>
      </trkpt>
      <trkpt lat="42.87853" lon="0.94726">
        <ele>850</ele>
        <time>2019-09-28T07:55:10Z</time>
      </trkpt>
      <trkpt lat="42.87863" lon="0.94717">
        <ele>851</ele>
        <time>2019-09-28T07:55:37Z</time>
      </trkpt>
      <trkpt lat="42.87871" lon="0.94709">
        <ele>853</ele>
        <time>2019-09-28T07:55:44Z</time>
      </trkpt>
      <trkpt lat="42.8788" lon="0.94705">
        <ele>851</ele>
        <time>2019-09-28T07:55:54Z</time>
      </trkpt>
      <trkpt lat="42.87888" lon="0.94698">
        <ele>852</ele>
        <time>2019-09-28T07:56:06Z</time>
      </trkpt>
      <trkpt lat="42.87895" lon="0.94693">
        <ele>856</ele>
        <time>2019-09-28T07:56:16Z</time>
      </trkpt>
      <trkpt lat="42.87905" lon="0.94686">
        <ele>857</ele>
        <time>2019-09-28T07:56:42Z</time>
      </trkpt>
      <trkpt lat="42.87915" lon="0.94683">
        <ele>859</ele>
        <time>2019-09-28T07:56:49Z</time>
      </trkpt>
      <trkpt lat="42.87922" lon="0.94676">
        <ele>864</ele>
        <time>2019-09-28T07:58:10Z</time>
      </trkpt>
      <trkpt lat="42.87929" lon="0.94668">
        <ele>860</ele>
        <time>2019-09-28T07:59:20Z</time>
      </trkpt>
      <trkpt lat="42.87938" lon="0.94663">
        <ele>860</ele>
        <time>2019-09-28T07:59:28Z</time>
      </trkpt>
      <trkpt lat="42.87948" lon="0.94659">
        <ele>865</ele>
        <time>2019-09-28T07:59:38Z</time>
      </trkpt>
      <trkpt lat="42.87957" lon="0.94655">
        <ele>865</ele>
        <time>2019-09-28T07:59:47Z</time>
      </trkpt>
      <trkpt lat="42.87965" lon="0.94647">
        <ele>866</ele>
        <time>2019-09-28T07:59:58Z</time>
      </trkpt>
      <trkpt lat="42.87973" lon="0.94638">
        <ele>873</ele>
        <time>2019-09-28T08:00:10Z</time>
      </trkpt>
      <trkpt lat="42.87982" lon="0.94632">
        <ele>871</ele>
        <time>2019-09-28T08:00:17Z</time>
      </trkpt>
      <trkpt lat="42.87988" lon="0.94624">
        <ele>873</ele>
        <time>2019-09-28T08:00:28Z</time>
      </trkpt>
      <trkpt lat="42.87997" lon="0.94621">
        <ele>871</ele>
        <time>2019-09-28T08:00:38Z</time>
      </trkpt>
      <trkpt lat="42.88005" lon="0.94626">
        <ele>872</ele>
        <time>2019-09-28T08:00:55Z</time>
      </trkpt>
      <trkpt lat="42.88016" lon="0.94623">
        <ele>871</ele>
        <time>2019-09-28T08:01:05Z</time>
      </trkpt>
      <trkpt lat="42.88025" lon="0.94622">
        <ele>874</ele>
        <time>2019-09-28T08:01:20Z</time>
      </trkpt>
      <trkpt lat="42.88034" lon="0.94618">
        <ele>877</ele>
        <time>2019-09-28T08:01:33Z</time>
      </trkpt>
      <trkpt lat="42.88042" lon="0.94611">
        <ele>879</ele>
        <time>2019-09-28T08:01:43Z</time>
      </trkpt>
      <trkpt lat="42.88052" lon="0.94605">
        <ele>878</ele>
        <time>2019-09-28T08:01:52Z</time>
      </trkpt>
      <trkpt lat="42.8806" lon="0.94598">
        <ele>877</ele>
        <time>2019-09-28T08:02:02Z</time>
      </trkpt>
      <trkpt lat="42.88069" lon="0.94599">
        <ele>872</ele>
        <time>2019-09-28T08:02:10Z</time>
      </trkpt>
      <trkpt lat="42.88075" lon="0.9459">
        <ele>875</ele>
        <time>2019-09-28T08:02:20Z</time>
      </trkpt>
      <trkpt lat="42.88084" lon="0.94584">
        <ele>874</ele>
        <time>2019-09-28T08:02:31Z</time>
      </trkpt>
      <trkpt lat="42.88091" lon="0.94577">
        <ele>881</ele>
        <time>2019-09-28T08:02:47Z</time>
      </trkpt>
      <trkpt lat="42.88099" lon="0.9457">
        <ele>886</ele>
        <time>2019-09-28T08:03:01Z</time>
      </trkpt>
      <trkpt lat="42.88109" lon="0.94567">
        <ele>888</ele>
        <time>2019-09-28T08:03:22Z</time>
      </trkpt>
      <trkpt lat="42.88119" lon="0.9456">
        <ele>888</ele>
        <time>2019-09-28T08:03:32Z</time>
      </trkpt>
      <trkpt lat="42.88126" lon="0.94551">
        <ele>889</ele>
        <time>2019-09-28T08:03:42Z</time>
      </trkpt>
      <trkpt lat="42.88134" lon="0.94548">
        <ele>892</ele>
        <time>2019-09-28T08:03:55Z</time>
      </trkpt>
      <trkpt lat="42.88142" lon="0.94541">
        <ele>895</ele>
        <time>2019-09-28T08:04:06Z</time>
      </trkpt>
      <trkpt lat="42.8815" lon="0.94533">
        <ele>894</ele>
        <time>2019-09-28T08:04:26Z</time>
      </trkpt>
      <trkpt lat="42.88156" lon="0.94524">
        <ele>891</ele>
        <time>2019-09-28T08:04:44Z</time>
      </trkpt>
      <trkpt lat="42.88161" lon="0.94513">
        <ele>895</ele>
        <time>2019-09-28T08:04:53Z</time>
      </trkpt>
      <trkpt lat="42.88166" lon="0.94503">
        <ele>894</ele>
        <time>2019-09-28T08:05:01Z</time>
      </trkpt>
      <trkpt lat="42.88171" lon="0.9449">
        <ele>897</ele>
        <time>2019-09-28T08:05:10Z</time>
      </trkpt>
      <trkpt lat="42.88175" lon="0.94477">
        <ele>899</ele>
        <time>2019-09-28T08:05:17Z</time>
      </trkpt>
      <trkpt lat="42.88179" lon="0.94465">
        <ele>902</ele>
        <time>2019-09-28T08:05:24Z</time>
      </trkpt>
      <trkpt lat="42.88185" lon="0.94453">
        <ele>902</ele>
        <time>2019-09-28T08:05:33Z</time>
      </trkpt>
      <trkpt lat="42.88184" lon="0.9444">
        <ele>905</ele>
        <time>2019-09-28T08:05:41Z</time>
      </trkpt>
      <trkpt lat="42.88183" lon="0.94427">
        <ele>910</ele>
        <time>2019-09-28T08:05:52Z</time>
      </trkpt>
      <trkpt lat="42.88175" lon="0.94418">
        <ele>909</ele>
        <time>2019-09-28T08:05:58Z</time>
      </trkpt>
      <trkpt lat="42.8817" lon="0.94408">
        <ele>914</ele>
        <time>2019-09-28T08:06:09Z</time>
      </trkpt>
      <trkpt lat="42.88164" lon="0.94398">
        <ele>917</ele>
        <time>2019-09-28T08:06:17Z</time>
      </trkpt>
      <trkpt lat="42.88157" lon="0.94389">
        <ele>917</ele>
        <time>2019-09-28T08:06:26Z</time>
      </trkpt>
      <trkpt lat="42.8815" lon="0.94376">
        <ele>919</ele>
        <time>2019-09-28T08:06:39Z</time>
      </trkpt>
      <trkpt lat="42.88145" lon="0.94366">
        <ele>920</ele>
        <time>2019-09-28T08:06:48Z</time>
      </trkpt>
      <trkpt lat="42.88138" lon="0.94358">
        <ele>920</ele>
        <time>2019-09-28T08:06:56Z</time>
      </trkpt>
      <trkpt lat="42.88129" lon="0.94354">
        <ele>923</ele>
        <time>2019-09-28T08:07:06Z</time>
      </trkpt>
      <trkpt lat="42.88136" lon="0.94344">
        <ele>925</ele>
        <time>2019-09-28T08:09:06Z</time>
      </trkpt>
      <trkpt lat="42.88143" lon="0.94335">
        <ele>928</ele>
        <time>2019-09-28T08:09:13Z</time>
      </trkpt>
      <trkpt lat="42.88147" lon="0.94324">
        <ele>926</ele>
        <time>2019-09-28T08:09:22Z</time>
      </trkpt>
      <trkpt lat="42.88155" lon="0.94316">
        <ele>926</ele>
        <time>2019-09-28T08:09:31Z</time>
      </trkpt>
      <trkpt lat="42.88164" lon="0.9432">
        <ele>925</ele>
        <time>2019-09-28T08:09:40Z</time>
      </trkpt>
      <trkpt lat="42.88168" lon="0.94309">
        <ele>928</ele>
        <time>2019-09-28T08:09:47Z</time>
      </trkpt>
      <trkpt lat="42.88177" lon="0.94311">
        <ele>933</ele>
        <time>2019-09-28T08:10:01Z</time>
      </trkpt>
      <trkpt lat="42.88186" lon="0.94309">
        <ele>937</ele>
        <time>2019-09-28T08:10:12Z</time>
      </trkpt>
      <trkpt lat="42.88195" lon="0.94306">
        <ele>939</ele>
        <time>2019-09-28T08:10:24Z</time>
      </trkpt>
      <trkpt lat="42.88204" lon="0.943">
        <ele>942</ele>
        <time>2019-09-28T08:10:35Z</time>
      </trkpt>
      <trkpt lat="42.88214" lon="0.94301">
        <ele>941</ele>
        <time>2019-09-28T08:10:48Z</time>
      </trkpt>
      <trkpt lat="42.88222" lon="0.94295">
        <ele>945</ele>
        <time>2019-09-28T08:11:01Z</time>
      </trkpt>
      <trkpt lat="42.88231" lon="0.94297">
        <ele>950</ele>
        <time>2019-09-28T08:11:15Z</time>
      </trkpt>
      <trkpt lat="42.88239" lon="0.94306">
        <ele>955</ele>
        <time>2019-09-28T08:11:26Z</time>
      </trkpt>
      <trkpt lat="42.88244" lon="0.94293">
        <ele>955</ele>
        <time>2019-09-28T08:11:34Z</time>
      </trkpt>
      <trkpt lat="42.88253" lon="0.94289">
        <ele>956</ele>
        <time>2019-09-28T08:11:43Z</time>
      </trkpt>
      <trkpt lat="42.88262" lon="0.94288">
        <ele>958</ele>
        <time>2019-09-28T08:12:00Z</time>
      </trkpt>
      <trkpt lat="42.88271" lon="0.94288">
        <ele>961</ele>
        <time>2019-09-28T08:12:15Z</time>
      </trkpt>
      <trkpt lat="42.88281" lon="0.94285">
        <ele>965</ele>
        <time>2019-09-28T08:12:26Z</time>
      </trkpt>
      <trkpt lat="42.8829" lon="0.9428">
        <ele>964</ele>
        <time>2019-09-28T08:12:38Z</time>
      </trkpt>
      <trkpt lat="42.883" lon="0.94272">
        <ele>966</ele>
        <time>2019-09-28T08:12:53Z</time>
      </trkpt>
      <trkpt lat="42.88309" lon="0.94267">
        <ele>967</ele>
        <time>2019-09-28T08:13:03Z</time>
      </trkpt>
      <trkpt lat="42.88318" lon="0.94263">
        <ele>968</ele>
        <time>2019-09-28T08:13:38Z</time>
      </trkpt>
      <trkpt lat="42.88326" lon="0.94258">
        <ele>971</ele>
        <time>2019-09-28T08:13:46Z</time>
      </trkpt>
      <trkpt lat="42.88335" lon="0.94257">
        <ele>974</ele>
        <time>2019-09-28T08:14:00Z</time>
      </trkpt>
      <trkpt lat="42.88344" lon="0.94255">
        <ele>979</ele>
        <time>2019-09-28T08:14:14Z</time>
      </trkpt>
      <trkpt lat="42.88353" lon="0.9425">
        <ele>979</ele>
        <time>2019-09-28T08:14:30Z</time>
      </trkpt>
      <trkpt lat="42.88362" lon="0.94249">
        <ele>977</ele>
        <time>2019-09-28T08:14:46Z</time>
      </trkpt>
      <trkpt lat="42.88371" lon="0.94249">
        <ele>979</ele>
        <time>2019-09-28T08:15:00Z</time>
      </trkpt>
      <trkpt lat="42.8838" lon="0.94243">
        <ele>978</ele>
        <time>2019-09-28T08:15:14Z</time>
      </trkpt>
      <trkpt lat="42.8839" lon="0.94244">
        <ele>984</ele>
        <time>2019-09-28T08:15:36Z</time>
      </trkpt>
      <trkpt lat="42.88397" lon="0.94252">
        <ele>981</ele>
        <time>2019-09-28T08:15:48Z</time>
      </trkpt>
      <trkpt lat="42.88407" lon="0.9425">
        <ele>988</ele>
        <time>2019-09-28T08:16:12Z</time>
      </trkpt>
      <trkpt lat="42.88417" lon="0.9425">
        <ele>989</ele>
        <time>2019-09-28T08:16:23Z</time>
      </trkpt>
      <trkpt lat="42.88426" lon="0.94247">
        <ele>997</ele>
        <time>2019-09-28T08:16:58Z</time>
      </trkpt>
      <trkpt lat="42.88435" lon="0.94243">
        <ele>998</ele>
        <time>2019-09-28T08:17:05Z</time>
      </trkpt>
      <trkpt lat="42.88444" lon="0.94247">
        <ele>1007</ele>
        <time>2019-09-28T08:17:17Z</time>
      </trkpt>
      <trkpt lat="42.88453" lon="0.94242">
        <ele>1006</ele>
        <time>2019-09-28T08:17:44Z</time>
      </trkpt>
      <trkpt lat="42.88463" lon="0.94241">
        <ele>1007</ele>
        <time>2019-09-28T08:17:55Z</time>
      </trkpt>
      <trkpt lat="42.8847" lon="0.94232">
        <ele>1011</ele>
        <time>2019-09-28T08:18:02Z</time>
      </trkpt>
      <trkpt lat="42.8848" lon="0.94233">
        <ele>1012</ele>
        <time>2019-09-28T08:18:09Z</time>
      </trkpt>
      <trkpt lat="42.88489" lon="0.94234">
        <ele>1015</ele>
        <time>2019-09-28T08:18:33Z</time>
      </trkpt>
      <trkpt lat="42.88498" lon="0.94229">
        <ele>1020</ele>
        <time>2019-09-28T08:18:42Z</time>
      </trkpt>
      <trkpt lat="42.8851" lon="0.94226">
        <ele>1020</ele>
        <time>2019-09-28T08:18:53Z</time>
      </trkpt>
      <trkpt lat="42.88521" lon="0.94224">
        <ele>1022</ele>
        <time>2019-09-28T08:19:30Z</time>
      </trkpt>
      <trkpt lat="42.8853" lon="0.94213">
        <ele>1020</ele>
        <time>2019-09-28T08:19:49Z</time>
      </trkpt>
      <trkpt lat="42.88539" lon="0.94209">
        <ele>1020</ele>
        <time>2019-09-28T08:19:54Z</time>
      </trkpt>
      <trkpt lat="42.88547" lon="0.94202">
        <ele>1020</ele>
        <time>2019-09-28T08:19:59Z</time>
      </trkpt>
      <trkpt lat="42.88556" lon="0.94196">
        <ele>1028</ele>
        <time>2019-09-28T08:20:31Z</time>
      </trkpt>
      <trkpt lat="42.88564" lon="0.94189">
        <ele>1032</ele>
        <time>2019-09-28T08:20:39Z</time>
      </trkpt>
      <trkpt lat="42.88572" lon="0.94181">
        <ele>1035</ele>
        <time>2019-09-28T08:20:45Z</time>
      </trkpt>
      <trkpt lat="42.88577" lon="0.94167">
        <ele>1039</ele>
        <time>2019-09-28T08:21:17Z</time>
      </trkpt>
      <trkpt lat="42.88578" lon="0.94152">
        <ele>1042</ele>
        <time>2019-09-28T08:21:30Z</time>
      </trkpt>
      <trkpt lat="42.8858" lon="0.9414">
        <ele>1046</ele>
        <time>2019-09-28T08:21:40Z</time>
      </trkpt>
      <trkpt lat="42.88583" lon="0.94128">
        <ele>1049</ele>
        <time>2019-09-28T08:21:49Z</time>
      </trkpt>
      <trkpt lat="42.88587" lon="0.94116">
        <ele>1054</ele>
        <time>2019-09-28T08:22:05Z</time>
      </trkpt>
      <trkpt lat="42.88597" lon="0.94114">
        <ele>1058</ele>
        <time>2019-09-28T08:22:18Z</time>
      </trkpt>
      <trkpt lat="42.88607" lon="0.94108">
        <ele>1064</ele>
        <time>2019-09-28T08:30:01Z</time>
      </trkpt>
      <trkpt lat="42.88614" lon="0.94095">
        <ele>1059</ele>
        <time>2019-09-28T08:30:23Z</time>
      </trkpt>
      <trkpt lat="42.88621" lon="0.94086">
        <ele>1061</ele>
        <time>2019-09-28T08:30:29Z</time>
      </trkpt>
      <trkpt lat="42.88627" lon="0.94076">
        <ele>1063</ele>
        <time>2019-09-28T08:30:37Z</time>
      </trkpt>
      <trkpt lat="42.88634" lon="0.94067">
        <ele>1066</ele>
        <time>2019-09-28T08:30:49Z</time>
      </trkpt>
      <trkpt lat="42.88638" lon="0.94056">
        <ele>1064</ele>
        <time>2019-09-28T08:30:57Z</time>
      </trkpt>
      <trkpt lat="42.88639" lon="0.94044">
        <ele>1071</ele>
        <time>2019-09-28T08:31:09Z</time>
      </trkpt>
      <trkpt lat="42.88641" lon="0.94032">
        <ele>1075</ele>
        <time>2019-09-28T08:31:21Z</time>
      </trkpt>
      <trkpt lat="42.88639" lon="0.94018">
        <ele>1076</ele>
        <time>2019-09-28T08:31:31Z</time>
      </trkpt>
      <trkpt lat="42.88641" lon="0.94006">
        <ele>1079</ele>
        <time>2019-09-28T08:31:43Z</time>
      </trkpt>
      <trkpt lat="42.88633" lon="0.93997">
        <ele>1081</ele>
        <time>2019-09-28T08:31:59Z</time>
      </trkpt>
      <trkpt lat="42.88634" lon="0.93983">
        <ele>1082</ele>
        <time>2019-09-28T08:32:03Z</time>
      </trkpt>
      <trkpt lat="42.88635" lon="0.9397">
        <ele>1085</ele>
        <time>2019-09-28T08:32:13Z</time>
      </trkpt>
      <trkpt lat="42.88636" lon="0.93958">
        <ele>1084</ele>
        <time>2019-09-28T08:32:23Z</time>
      </trkpt>
      <trkpt lat="42.88634" lon="0.93946">
        <ele>1088</ele>
        <time>2019-09-28T08:32:36Z</time>
      </trkpt>
      <trkpt lat="42.88633" lon="0.93932">
        <ele>1087</ele>
        <time>2019-09-28T08:32:45Z</time>
      </trkpt>
      <trkpt lat="42.88634" lon="0.9392">
        <ele>1093</ele>
        <time>2019-09-28T08:33:02Z</time>
      </trkpt>
      <trkpt lat="42.88636" lon="0.93906">
        <ele>1090</ele>
        <time>2019-09-28T08:33:13Z</time>
      </trkpt>
      <trkpt lat="42.88638" lon="0.93894">
        <ele>1092</ele>
        <time>2019-09-28T08:33:26Z</time>
      </trkpt>
      <trkpt lat="42.88639" lon="0.93882">
        <ele>1093</ele>
        <time>2019-09-28T08:33:36Z</time>
      </trkpt>
      <trkpt lat="42.88644" lon="0.9387">
        <ele>1095</ele>
        <time>2019-09-28T08:33:45Z</time>
      </trkpt>
      <trkpt lat="42.88645" lon="0.93858">
        <ele>1100</ele>
        <time>2019-09-28T08:33:59Z</time>
      </trkpt>
      <trkpt lat="42.88645" lon="0.93844">
        <ele>1099</ele>
        <time>2019-09-28T08:34:14Z</time>
      </trkpt>
      <trkpt lat="42.88649" lon="0.93832">
        <ele>1099</ele>
        <time>2019-09-28T08:34:23Z</time>
      </trkpt>
      <trkpt lat="42.88655" lon="0.9382">
        <ele>1098</ele>
        <time>2019-09-28T08:34:33Z</time>
      </trkpt>
      <trkpt lat="42.88659" lon="0.93804">
        <ele>1098</ele>
        <time>2019-09-28T08:34:43Z</time>
      </trkpt>
      <trkpt lat="42.88664" lon="0.93792">
        <ele>1096</ele>
        <time>2019-09-28T08:34:59Z</time>
      </trkpt>
      <trkpt lat="42.8867" lon="0.93782">
        <ele>1094</ele>
        <time>2019-09-28T08:35:09Z</time>
      </trkpt>
      <trkpt lat="42.88674" lon="0.9377">
        <ele>1098</ele>
        <time>2019-09-28T08:35:19Z</time>
      </trkpt>
      <trkpt lat="42.88677" lon="0.93757">
        <ele>1096</ele>
        <time>2019-09-28T08:35:32Z</time>
      </trkpt>
      <trkpt lat="42.88679" lon="0.93746">
        <ele>1096</ele>
        <time>2019-09-28T08:35:41Z</time>
      </trkpt>
      <trkpt lat="42.88681" lon="0.93732">
        <ele>1096</ele>
        <time>2019-09-28T08:35:50Z</time>
      </trkpt>
      <trkpt lat="42.88686" lon="0.93722">
        <ele>1092</ele>
        <time>2019-09-28T08:35:57Z</time>
      </trkpt>
      <trkpt lat="42.88687" lon="0.9371">
        <ele>1090</ele>
        <time>2019-09-28T08:36:09Z</time>
      </trkpt>
      <trkpt lat="42.88688" lon="0.93696">
        <ele>1096</ele>
        <time>2019-09-28T08:36:21Z</time>
      </trkpt>
      <trkpt lat="42.8869" lon="0.93683">
        <ele>1097</ele>
        <time>2019-09-28T08:36:30Z</time>
      </trkpt>
      <trkpt lat="42.8869" lon="0.9367">
        <ele>1098</ele>
        <time>2019-09-28T08:36:46Z</time>
      </trkpt>
      <trkpt lat="42.88685" lon="0.93657">
        <ele>1101</ele>
        <time>2019-09-28T08:36:55Z</time>
      </trkpt>
      <trkpt lat="42.88677" lon="0.93651">
        <ele>1101</ele>
        <time>2019-09-28T08:37:10Z</time>
      </trkpt>
      <trkpt lat="42.88672" lon="0.9364">
        <ele>1099</ele>
        <time>2019-09-28T08:37:17Z</time>
      </trkpt>
      <trkpt lat="42.88663" lon="0.93641">
        <ele>1102</ele>
        <time>2019-09-28T08:37:29Z</time>
      </trkpt>
      <trkpt lat="42.88654" lon="0.93639">
        <ele>1109</ele>
        <time>2019-09-28T08:37:44Z</time>
      </trkpt>
      <trkpt lat="42.88647" lon="0.93631">
        <ele>1114</ele>
        <time>2019-09-28T08:37:57Z</time>
      </trkpt>
      <trkpt lat="42.88638" lon="0.93623">
        <ele>1110</ele>
        <time>2019-09-28T08:38:06Z</time>
      </trkpt>
      <trkpt lat="42.88632" lon="0.93613">
        <ele>1105</ele>
        <time>2019-09-28T08:38:24Z</time>
      </trkpt>
      <trkpt lat="42.88624" lon="0.93606">
        <ele>1110</ele>
        <time>2019-09-28T08:38:31Z</time>
      </trkpt>
      <trkpt lat="42.88615" lon="0.93602">
        <ele>1114</ele>
        <time>2019-09-28T08:38:51Z</time>
      </trkpt>
      <trkpt lat="42.8861" lon="0.93591">
        <ele>1115</ele>
        <time>2019-09-28T08:39:06Z</time>
      </trkpt>
      <trkpt lat="42.88617" lon="0.93581">
        <ele>1116</ele>
        <time>2019-09-28T08:39:26Z</time>
      </trkpt>
      <trkpt lat="42.88623" lon="0.93571">
        <ele>1120</ele>
        <time>2019-09-28T08:39:38Z</time>
      </trkpt>
      <trkpt lat="42.88631" lon="0.93564">
        <ele>1120</ele>
        <time>2019-09-28T08:39:46Z</time>
      </trkpt>
      <trkpt lat="42.88636" lon="0.93553">
        <ele>1120</ele>
        <time>2019-09-28T08:39:58Z</time>
      </trkpt>
      <trkpt lat="42.88641" lon="0.93541">
        <ele>1124</ele>
        <time>2019-09-28T08:40:14Z</time>
      </trkpt>
      <trkpt lat="42.88643" lon="0.93528">
        <ele>1127</ele>
        <time>2019-09-28T08:40:27Z</time>
      </trkpt>
      <trkpt lat="42.88649" lon="0.93517">
        <ele>1125</ele>
        <time>2019-09-28T08:40:38Z</time>
      </trkpt>
      <trkpt lat="42.88655" lon="0.93506">
        <ele>1126</ele>
        <time>2019-09-28T08:40:47Z</time>
      </trkpt>
      <trkpt lat="42.88663" lon="0.93498">
        <ele>1121</ele>
        <time>2019-09-28T08:40:58Z</time>
      </trkpt>
      <trkpt lat="42.88668" lon="0.93487">
        <ele>1120</ele>
        <time>2019-09-28T08:41:11Z</time>
      </trkpt>
      <trkpt lat="42.88675" lon="0.93479">
        <ele>1124</ele>
        <time>2019-09-28T08:41:25Z</time>
      </trkpt>
      <trkpt lat="42.88685" lon="0.93473">
        <ele>1123</ele>
        <time>2019-09-28T08:41:39Z</time>
      </trkpt>
      <trkpt lat="42.88685" lon="0.9346">
        <ele>1123</ele>
        <time>2019-09-28T08:41:48Z</time>
      </trkpt>
      <trkpt lat="42.88691" lon="0.93449">
        <ele>1121</ele>
        <time>2019-09-28T08:41:56Z</time>
      </trkpt>
      <trkpt lat="42.88695" lon="0.93436">
        <ele>1120</ele>
        <time>2019-09-28T08:42:15Z</time>
      </trkpt>
      <trkpt lat="42.887" lon="0.93426">
        <ele>1124</ele>
        <time>2019-09-28T08:42:22Z</time>
      </trkpt>
      <trkpt lat="42.88699" lon="0.93413">
        <ele>1128</ele>
        <time>2019-09-28T08:42:35Z</time>
      </trkpt>
      <trkpt lat="42.88709" lon="0.93407">
        <ele>1127</ele>
        <time>2019-09-28T08:42:48Z</time>
      </trkpt>
      <trkpt lat="42.88712" lon="0.93396">
        <ele>1132</ele>
        <time>2019-09-28T08:43:01Z</time>
      </trkpt>
      <trkpt lat="42.88718" lon="0.93384">
        <ele>1138</ele>
        <time>2019-09-28T08:43:16Z</time>
      </trkpt>
      <trkpt lat="42.88721" lon="0.9337">
        <ele>1137</ele>
        <time>2019-09-28T08:43:49Z</time>
      </trkpt>
      <trkpt lat="42.88728" lon="0.93358">
        <ele>1136</ele>
        <time>2019-09-28T08:45:00Z</time>
      </trkpt>
      <trkpt lat="42.8873" lon="0.93345">
        <ele>1144</ele>
        <time>2019-09-28T08:45:08Z</time>
      </trkpt>
      <trkpt lat="42.88729" lon="0.93332">
        <ele>1146</ele>
        <time>2019-09-28T08:45:15Z</time>
      </trkpt>
      <trkpt lat="42.88726" lon="0.93321">
        <ele>1148</ele>
        <time>2019-09-28T08:45:27Z</time>
      </trkpt>
      <trkpt lat="42.88725" lon="0.93308">
        <ele>1150</ele>
        <time>2019-09-28T08:45:35Z</time>
      </trkpt>
      <trkpt lat="42.88732" lon="0.93302">
        <ele>1150</ele>
        <time>2019-09-28T08:45:45Z</time>
      </trkpt>
      <trkpt lat="42.8874" lon="0.93294">
        <ele>1148</ele>
        <time>2019-09-28T08:45:57Z</time>
      </trkpt>
      <trkpt lat="42.88747" lon="0.93286">
        <ele>1150</ele>
        <time>2019-09-28T08:46:10Z</time>
      </trkpt>
      <trkpt lat="42.88751" lon="0.93275">
        <ele>1158</ele>
        <time>2019-09-28T08:46:26Z</time>
      </trkpt>
      <trkpt lat="42.88756" lon="0.93264">
        <ele>1160</ele>
        <time>2019-09-28T08:46:39Z</time>
      </trkpt>
      <trkpt lat="42.88764" lon="0.93257">
        <ele>1157</ele>
        <time>2019-09-28T08:46:50Z</time>
      </trkpt>
      <trkpt lat="42.88769" lon="0.93246">
        <ele>1159</ele>
        <time>2019-09-28T08:46:59Z</time>
      </trkpt>
      <trkpt lat="42.88775" lon="0.93236">
        <ele>1162</ele>
        <time>2019-09-28T08:47:32Z</time>
      </trkpt>
      <trkpt lat="42.88784" lon="0.93228">
        <ele>1164</ele>
        <time>2019-09-28T08:47:36Z</time>
      </trkpt>
      <trkpt lat="42.8879" lon="0.93219">
        <ele>1165</ele>
        <time>2019-09-28T08:47:43Z</time>
      </trkpt>
      <trkpt lat="42.88795" lon="0.93206">
        <ele>1163</ele>
        <time>2019-09-28T08:47:52Z</time>
      </trkpt>
      <trkpt lat="42.88802" lon="0.93196">
        <ele>1160</ele>
        <time>2019-09-28T08:48:03Z</time>
      </trkpt>
      <trkpt lat="42.8881" lon="0.9319">
        <ele>1164</ele>
        <time>2019-09-28T08:48:10Z</time>
      </trkpt>
      <trkpt lat="42.88818" lon="0.93182">
        <ele>1163</ele>
        <time>2019-09-28T08:48:16Z</time>
      </trkpt>
      <trkpt lat="42.8882" lon="0.9317">
        <ele>1167</ele>
        <time>2019-09-28T08:48:32Z</time>
      </trkpt>
      <trkpt lat="42.88828" lon="0.93162">
        <ele>1174</ele>
        <time>2019-09-28T08:48:45Z</time>
      </trkpt>
      <trkpt lat="42.88832" lon="0.9315">
        <ele>1174</ele>
        <time>2019-09-28T08:48:50Z</time>
      </trkpt>
      <trkpt lat="42.88841" lon="0.93143">
        <ele>1179</ele>
        <time>2019-09-28T08:49:03Z</time>
      </trkpt>
      <trkpt lat="42.88846" lon="0.93132">
        <ele>1180</ele>
        <time>2019-09-28T08:49:12Z</time>
      </trkpt>
      <trkpt lat="42.88855" lon="0.93124">
        <ele>1179</ele>
        <time>2019-09-28T08:49:21Z</time>
      </trkpt>
      <trkpt lat="42.88859" lon="0.93113">
        <ele>1176</ele>
        <time>2019-09-28T08:49:31Z</time>
      </trkpt>
      <trkpt lat="42.88866" lon="0.93103">
        <ele>1177</ele>
        <time>2019-09-28T08:49:41Z</time>
      </trkpt>
      <trkpt lat="42.88872" lon="0.93094">
        <ele>1176</ele>
        <time>2019-09-28T08:49:52Z</time>
      </trkpt>
      <trkpt lat="42.88878" lon="0.93084">
        <ele>1177</ele>
        <time>2019-09-28T08:50:06Z</time>
      </trkpt>
      <trkpt lat="42.88883" lon="0.93073">
        <ele>1183</ele>
        <time>2019-09-28T08:50:16Z</time>
      </trkpt>
      <trkpt lat="42.88887" lon="0.9306">
        <ele>1186</ele>
        <time>2019-09-28T08:50:30Z</time>
      </trkpt>
      <trkpt lat="42.88892" lon="0.93048">
        <ele>1188</ele>
        <time>2019-09-28T08:50:41Z</time>
      </trkpt>
      <trkpt lat="42.88898" lon="0.93038">
        <ele>1190</ele>
        <time>2019-09-28T08:50:52Z</time>
      </trkpt>
      <trkpt lat="42.88897" lon="0.93026">
        <ele>1190</ele>
        <time>2019-09-28T08:51:01Z</time>
      </trkpt>
      <trkpt lat="42.88898" lon="0.93012">
        <ele>1190</ele>
        <time>2019-09-28T08:51:14Z</time>
      </trkpt>
      <trkpt lat="42.88903" lon="0.93001">
        <ele>1188</ele>
        <time>2019-09-28T08:51:30Z</time>
      </trkpt>
      <trkpt lat="42.88906" lon="0.92989">
        <ele>1189</ele>
        <time>2019-09-28T08:51:40Z</time>
      </trkpt>
      <trkpt lat="42.88909" lon="0.92977">
        <ele>1190</ele>
        <time>2019-09-28T08:51:57Z</time>
      </trkpt>
      <trkpt lat="42.88916" lon="0.92967">
        <ele>1194</ele>
        <time>2019-09-28T08:52:14Z</time>
      </trkpt>
      <trkpt lat="42.88925" lon="0.92959">
        <ele>1194</ele>
        <time>2019-09-28T08:52:28Z</time>
      </trkpt>
      <trkpt lat="42.88926" lon="0.92947">
        <ele>1194</ele>
        <time>2019-09-28T08:52:35Z</time>
      </trkpt>
      <trkpt lat="42.88933" lon="0.92939">
        <ele>1198</ele>
        <time>2019-09-28T08:52:51Z</time>
      </trkpt>
      <trkpt lat="42.88938" lon="0.92928">
        <ele>1201</ele>
        <time>2019-09-28T08:53:01Z</time>
      </trkpt>
      <trkpt lat="42.88942" lon="0.92916">
        <ele>1201</ele>
        <time>2019-09-28T08:53:14Z</time>
      </trkpt>
      <trkpt lat="42.88951" lon="0.9291">
        <ele>1202</ele>
        <time>2019-09-28T08:53:26Z</time>
      </trkpt>
      <trkpt lat="42.88956" lon="0.92899">
        <ele>1202</ele>
        <time>2019-09-28T08:53:34Z</time>
      </trkpt>
      <trkpt lat="42.88964" lon="0.92893">
        <ele>1207</ele>
        <time>2019-09-28T08:53:46Z</time>
      </trkpt>
      <trkpt lat="42.8897" lon="0.92882">
        <ele>1210</ele>
        <time>2019-09-28T08:53:58Z</time>
      </trkpt>
      <trkpt lat="42.88977" lon="0.92873">
        <ele>1210</ele>
        <time>2019-09-28T08:54:10Z</time>
      </trkpt>
      <trkpt lat="42.88982" lon="0.92861">
        <ele>1213</ele>
        <time>2019-09-28T08:54:22Z</time>
      </trkpt>
      <trkpt lat="42.88985" lon="0.92848">
        <ele>1215</ele>
        <time>2019-09-28T08:54:32Z</time>
      </trkpt>
      <trkpt lat="42.88988" lon="0.92836">
        <ele>1210</ele>
        <time>2019-09-28T08:54:40Z</time>
      </trkpt>
      <trkpt lat="42.88991" lon="0.92825">
        <ele>1210</ele>
        <time>2019-09-28T08:54:52Z</time>
      </trkpt>
      <trkpt lat="42.88993" lon="0.92812">
        <ele>1214</ele>
        <time>2019-09-28T08:55:12Z</time>
      </trkpt>
      <trkpt lat="42.88997" lon="0.928">
        <ele>1221</ele>
        <time>2019-09-28T08:55:31Z</time>
      </trkpt>
      <trkpt lat="42.89002" lon="0.92787">
        <ele>1224</ele>
        <time>2019-09-28T08:55:43Z</time>
      </trkpt>
      <trkpt lat="42.88998" lon="0.92773">
        <ele>1224</ele>
        <time>2019-09-28T08:57:53Z</time>
      </trkpt>
      <trkpt lat="42.88994" lon="0.9276">
        <ele>1223</ele>
        <time>2019-09-28T08:58:00Z</time>
      </trkpt>
      <trkpt lat="42.88991" lon="0.92748">
        <ele>1221</ele>
        <time>2019-09-28T08:58:08Z</time>
      </trkpt>
      <trkpt lat="42.88992" lon="0.92735">
        <ele>1219</ele>
        <time>2019-09-28T08:58:20Z</time>
      </trkpt>
      <trkpt lat="42.8899" lon="0.92721">
        <ele>1221</ele>
        <time>2019-09-28T08:58:31Z</time>
      </trkpt>
      <trkpt lat="42.88996" lon="0.92711">
        <ele>1216</ele>
        <time>2019-09-28T08:58:38Z</time>
      </trkpt>
      <trkpt lat="42.89001" lon="0.92699">
        <ele>1218</ele>
        <time>2019-09-28T08:58:47Z</time>
      </trkpt>
      <trkpt lat="42.89001" lon="0.92686">
        <ele>1216</ele>
        <time>2019-09-28T08:58:56Z</time>
      </trkpt>
      <trkpt lat="42.89005" lon="0.92675">
        <ele>1218</ele>
        <time>2019-09-28T08:59:07Z</time>
      </trkpt>
      <trkpt lat="42.89011" lon="0.92667">
        <ele>1216</ele>
        <time>2019-09-28T08:59:15Z</time>
      </trkpt>
      <trkpt lat="42.89012" lon="0.92653">
        <ele>1221</ele>
        <time>2019-09-28T08:59:27Z</time>
      </trkpt>
      <trkpt lat="42.89015" lon="0.9264">
        <ele>1224</ele>
        <time>2019-09-28T08:59:37Z</time>
      </trkpt>
      <trkpt lat="42.89018" lon="0.92629">
        <ele>1223</ele>
        <time>2019-09-28T08:59:48Z</time>
      </trkpt>
      <trkpt lat="42.89023" lon="0.92618">
        <ele>1221</ele>
        <time>2019-09-28T08:59:56Z</time>
      </trkpt>
      <trkpt lat="42.89031" lon="0.92609">
        <ele>1217</ele>
        <time>2019-09-28T09:00:05Z</time>
      </trkpt>
      <trkpt lat="42.89037" lon="0.92598">
        <ele>1220</ele>
        <time>2019-09-28T09:00:21Z</time>
      </trkpt>
      <trkpt lat="42.89039" lon="0.92585">
        <ele>1221</ele>
        <time>2019-09-28T09:00:33Z</time>
      </trkpt>
      <trkpt lat="42.89044" lon="0.92573">
        <ele>1225</ele>
        <time>2019-09-28T09:00:40Z</time>
      </trkpt>
      <trkpt lat="42.89047" lon="0.92559">
        <ele>1230</ele>
        <time>2019-09-28T09:00:53Z</time>
      </trkpt>
      <trkpt lat="42.89051" lon="0.92548">
        <ele>1233</ele>
        <time>2019-09-28T09:01:05Z</time>
      </trkpt>
      <trkpt lat="42.89052" lon="0.92535">
        <ele>1232</ele>
        <time>2019-09-28T09:01:11Z</time>
      </trkpt>
      <trkpt lat="42.89056" lon="0.92524">
        <ele>1233</ele>
        <time>2019-09-28T09:01:19Z</time>
      </trkpt>
      <trkpt lat="42.89056" lon="0.92511">
        <ele>1233</ele>
        <time>2019-09-28T09:01:29Z</time>
      </trkpt>
      <trkpt lat="42.89058" lon="0.92499">
        <ele>1231</ele>
        <time>2019-09-28T09:01:39Z</time>
      </trkpt>
      <trkpt lat="42.89053" lon="0.92487">
        <ele>1237</ele>
        <time>2019-09-28T09:01:53Z</time>
      </trkpt>
      <trkpt lat="42.89053" lon="0.9247">
        <ele>1236</ele>
        <time>2019-09-28T09:02:17Z</time>
      </trkpt>
      <trkpt lat="42.89053" lon="0.92457">
        <ele>1237</ele>
        <time>2019-09-28T09:02:23Z</time>
      </trkpt>
      <trkpt lat="42.89049" lon="0.92445">
        <ele>1236</ele>
        <time>2019-09-28T09:02:34Z</time>
      </trkpt>
      <trkpt lat="42.8905" lon="0.92433">
        <ele>1237</ele>
        <time>2019-09-28T09:02:43Z</time>
      </trkpt>
      <trkpt lat="42.89053" lon="0.92421">
        <ele>1235</ele>
        <time>2019-09-28T09:02:50Z</time>
      </trkpt>
      <trkpt lat="42.89048" lon="0.92407">
        <ele>1240</ele>
        <time>2019-09-28T09:03:01Z</time>
      </trkpt>
      <trkpt lat="42.89044" lon="0.92396">
        <ele>1242</ele>
        <time>2019-09-28T09:03:14Z</time>
      </trkpt>
      <trkpt lat="42.89044" lon="0.92383">
        <ele>1244</ele>
        <time>2019-09-28T09:03:18Z</time>
      </trkpt>
      <trkpt lat="42.89045" lon="0.92369">
        <ele>1244</ele>
        <time>2019-09-28T09:03:40Z</time>
      </trkpt>
      <trkpt lat="42.89041" lon="0.92357">
        <ele>1245</ele>
        <time>2019-09-28T09:03:48Z</time>
      </trkpt>
      <trkpt lat="42.89044" lon="0.92345">
        <ele>1252</ele>
        <time>2019-09-28T09:04:06Z</time>
      </trkpt>
      <trkpt lat="42.89046" lon="0.92333">
        <ele>1255</ele>
        <time>2019-09-28T09:04:29Z</time>
      </trkpt>
      <trkpt lat="42.89044" lon="0.9232">
        <ele>1262</ele>
        <time>2019-09-28T09:11:01Z</time>
      </trkpt>
      <trkpt lat="42.89052" lon="0.92326">
        <ele>1255</ele>
        <time>2019-09-28T09:12:18Z</time>
      </trkpt>
      <trkpt lat="42.89062" lon="0.92319">
        <ele>1253</ele>
        <time>2019-09-28T09:12:36Z</time>
      </trkpt>
      <trkpt lat="42.89071" lon="0.92325">
        <ele>1260</ele>
        <time>2019-09-28T09:12:44Z</time>
      </trkpt>
      <trkpt lat="42.8908" lon="0.9232">
        <ele>1263</ele>
        <time>2019-09-28T09:12:53Z</time>
      </trkpt>
      <trkpt lat="42.89089" lon="0.92316">
        <ele>1263</ele>
        <time>2019-09-28T09:13:04Z</time>
      </trkpt>
      <trkpt lat="42.89097" lon="0.9231">
        <ele>1265</ele>
        <time>2019-09-28T09:13:16Z</time>
      </trkpt>
      <trkpt lat="42.89107" lon="0.92312">
        <ele>1269</ele>
        <time>2019-09-28T09:13:28Z</time>
      </trkpt>
      <trkpt lat="42.89116" lon="0.92313">
        <ele>1271</ele>
        <time>2019-09-28T09:13:38Z</time>
      </trkpt>
      <trkpt lat="42.89125" lon="0.92313">
        <ele>1271</ele>
        <time>2019-09-28T09:13:49Z</time>
      </trkpt>
      <trkpt lat="42.89135" lon="0.92312">
        <ele>1277</ele>
        <time>2019-09-28T09:14:05Z</time>
      </trkpt>
      <trkpt lat="42.89144" lon="0.92306">
        <ele>1279</ele>
        <time>2019-09-28T09:14:20Z</time>
      </trkpt>
      <trkpt lat="42.89153" lon="0.92301">
        <ele>1281</ele>
        <time>2019-09-28T09:14:35Z</time>
      </trkpt>
      <trkpt lat="42.89162" lon="0.92296">
        <ele>1282</ele>
        <time>2019-09-28T09:14:50Z</time>
      </trkpt>
      <trkpt lat="42.89171" lon="0.92292">
        <ele>1285</ele>
        <time>2019-09-28T09:14:59Z</time>
      </trkpt>
      <trkpt lat="42.89181" lon="0.92289">
        <ele>1284</ele>
        <time>2019-09-28T09:15:08Z</time>
      </trkpt>
      <trkpt lat="42.89189" lon="0.92285">
        <ele>1284</ele>
        <time>2019-09-28T09:15:18Z</time>
      </trkpt>
      <trkpt lat="42.89199" lon="0.92283">
        <ele>1286</ele>
        <time>2019-09-28T09:15:30Z</time>
      </trkpt>
      <trkpt lat="42.89207" lon="0.92276">
        <ele>1289</ele>
        <time>2019-09-28T09:15:46Z</time>
      </trkpt>
      <trkpt lat="42.89216" lon="0.92272">
        <ele>1286</ele>
        <time>2019-09-28T09:15:56Z</time>
      </trkpt>
      <trkpt lat="42.89226" lon="0.92271">
        <ele>1285</ele>
        <time>2019-09-28T09:16:04Z</time>
      </trkpt>
      <trkpt lat="42.89233" lon="0.92263">
        <ele>1289</ele>
        <time>2019-09-28T09:16:49Z</time>
      </trkpt>
      <trkpt lat="42.89242" lon="0.92259">
        <ele>1293</ele>
        <time>2019-09-28T09:17:05Z</time>
      </trkpt>
      <trkpt lat="42.89252" lon="0.92256">
        <ele>1296</ele>
        <time>2019-09-28T09:17:44Z</time>
      </trkpt>
      <trkpt lat="42.89261" lon="0.92257">
        <ele>1293</ele>
        <time>2019-09-28T09:17:48Z</time>
      </trkpt>
      <trkpt lat="42.89269" lon="0.92251">
        <ele>1298</ele>
        <time>2019-09-28T09:18:03Z</time>
      </trkpt>
      <trkpt lat="42.89278" lon="0.9225">
        <ele>1299</ele>
        <time>2019-09-28T09:18:11Z</time>
      </trkpt>
      <trkpt lat="42.89287" lon="0.92248">
        <ele>1299</ele>
        <time>2019-09-28T09:18:17Z</time>
      </trkpt>
      <trkpt lat="42.89298" lon="0.92246">
        <ele>1297</ele>
        <time>2019-09-28T09:18:30Z</time>
      </trkpt>
      <trkpt lat="42.89308" lon="0.92241">
        <ele>1304</ele>
        <time>2019-09-28T09:18:44Z</time>
      </trkpt>
      <trkpt lat="42.89318" lon="0.92235">
        <ele>1308</ele>
        <time>2019-09-28T09:19:01Z</time>
      </trkpt>
      <trkpt lat="42.89325" lon="0.92229">
        <ele>1311</ele>
        <time>2019-09-28T09:19:12Z</time>
      </trkpt>
      <trkpt lat="42.89336" lon="0.92228">
        <ele>1308</ele>
        <time>2019-09-28T09:19:18Z</time>
      </trkpt>
      <trkpt lat="42.89344" lon="0.92224">
        <ele>1308</ele>
        <time>2019-09-28T09:19:27Z</time>
      </trkpt>
      <trkpt lat="42.89352" lon="0.92214">
        <ele>1311</ele>
        <time>2019-09-28T09:20:06Z</time>
      </trkpt>
      <trkpt lat="42.89362" lon="0.92213">
        <ele>1310</ele>
        <time>2019-09-28T09:20:15Z</time>
      </trkpt>
      <trkpt lat="42.89373" lon="0.92215">
        <ele>1312</ele>
        <time>2019-09-28T09:20:26Z</time>
      </trkpt>
      <trkpt lat="42.89383" lon="0.92214">
        <ele>1313</ele>
        <time>2019-09-28T09:20:54Z</time>
      </trkpt>
      <trkpt lat="42.89393" lon="0.92214">
        <ele>1311</ele>
        <time>2019-09-28T09:20:59Z</time>
      </trkpt>
      <trkpt lat="42.89403" lon="0.92215">
        <ele>1310</ele>
        <time>2019-09-28T09:21:03Z</time>
      </trkpt>
      <trkpt lat="42.89412" lon="0.92215">
        <ele>1319</ele>
        <time>2019-09-28T09:21:40Z</time>
      </trkpt>
      <trkpt lat="42.89422" lon="0.92215">
        <ele>1320</ele>
        <time>2019-09-28T09:21:50Z</time>
      </trkpt>
      <trkpt lat="42.89432" lon="0.92215">
        <ele>1322</ele>
        <time>2019-09-28T09:22:01Z</time>
      </trkpt>
      <trkpt lat="42.89441" lon="0.92212">
        <ele>1330</ele>
        <time>2019-09-28T09:23:01Z</time>
      </trkpt>
      <trkpt lat="42.8945" lon="0.9222">
        <ele>1333</ele>
        <time>2019-09-28T09:23:09Z</time>
      </trkpt>
      <trkpt lat="42.8946" lon="0.92224">
        <ele>1338</ele>
        <time>2019-09-28T09:23:19Z</time>
      </trkpt>
      <trkpt lat="42.89468" lon="0.92228">
        <ele>1347</ele>
        <time>2019-09-28T09:24:37Z</time>
      </trkpt>
      <trkpt lat="42.89475" lon="0.92239">
        <ele>1349</ele>
        <time>2019-09-28T09:24:50Z</time>
      </trkpt>
      <trkpt lat="42.89482" lon="0.92248">
        <ele>1346</ele>
        <time>2019-09-28T09:24:59Z</time>
      </trkpt>
      <trkpt lat="42.89492" lon="0.92244">
        <ele>1346</ele>
        <time>2019-09-28T09:25:08Z</time>
      </trkpt>
      <trkpt lat="42.89504" lon="0.92245">
        <ele>1350</ele>
        <time>2019-09-28T09:25:19Z</time>
      </trkpt>
      <trkpt lat="42.89513" lon="0.92241">
        <ele>1358</ele>
        <time>2019-09-28T09:25:35Z</time>
      </trkpt>
      <trkpt lat="42.89522" lon="0.92239">
        <ele>1361</ele>
        <time>2019-09-28T09:32:12Z</time>
      </trkpt>
      <trkpt lat="42.89527" lon="0.9225">
        <ele>1359</ele>
        <time>2019-09-28T09:32:25Z</time>
      </trkpt>
      <trkpt lat="42.89535" lon="0.92259">
        <ele>1358</ele>
        <time>2019-09-28T09:32:33Z</time>
      </trkpt>
      <trkpt lat="42.89541" lon="0.92268">
        <ele>1355</ele>
        <time>2019-09-28T09:32:49Z</time>
      </trkpt>
      <trkpt lat="42.89547" lon="0.92279">
        <ele>1353</ele>
        <time>2019-09-28T09:33:01Z</time>
      </trkpt>
      <trkpt lat="42.89556" lon="0.92283">
        <ele>1357</ele>
        <time>2019-09-28T09:33:09Z</time>
      </trkpt>
      <trkpt lat="42.89566" lon="0.92287">
        <ele>1358</ele>
        <time>2019-09-28T09:33:42Z</time>
      </trkpt>
      <trkpt lat="42.89573" lon="0.92295">
        <ele>1355</ele>
        <time>2019-09-28T09:33:47Z</time>
      </trkpt>
      <trkpt lat="42.8958" lon="0.92303">
        <ele>1356</ele>
        <time>2019-09-28T09:33:56Z</time>
      </trkpt>
      <trkpt lat="42.89589" lon="0.92307">
        <ele>1356</ele>
        <time>2019-09-28T09:34:03Z</time>
      </trkpt>
      <trkpt lat="42.89598" lon="0.92313">
        <ele>1356</ele>
        <time>2019-09-28T09:34:12Z</time>
      </trkpt>
      <trkpt lat="42.89603" lon="0.92323">
        <ele>1357</ele>
        <time>2019-09-28T09:34:21Z</time>
      </trkpt>
      <trkpt lat="42.89612" lon="0.92322">
        <ele>1357</ele>
        <time>2019-09-28T09:34:27Z</time>
      </trkpt>
      <trkpt lat="42.8962" lon="0.92331">
        <ele>1354</ele>
        <time>2019-09-28T09:34:43Z</time>
      </trkpt>
      <trkpt lat="42.89624" lon="0.92343">
        <ele>1353</ele>
        <time>2019-09-28T09:34:49Z</time>
      </trkpt>
      <trkpt lat="42.89631" lon="0.92352">
        <ele>1349</ele>
        <time>2019-09-28T09:34:58Z</time>
      </trkpt>
      <trkpt lat="42.89628" lon="0.92365">
        <ele>1350</ele>
        <time>2019-09-28T09:35:11Z</time>
      </trkpt>
      <trkpt lat="42.89631" lon="0.92377">
        <ele>1348</ele>
        <time>2019-09-28T09:35:21Z</time>
      </trkpt>
      <trkpt lat="42.89636" lon="0.92388">
        <ele>1351</ele>
        <time>2019-09-28T09:35:30Z</time>
      </trkpt>
      <trkpt lat="42.89639" lon="0.92401">
        <ele>1348</ele>
        <time>2019-09-28T09:35:42Z</time>
      </trkpt>
      <trkpt lat="42.89637" lon="0.92414">
        <ele>1346</ele>
        <time>2019-09-28T09:35:57Z</time>
      </trkpt>
      <trkpt lat="42.89639" lon="0.92429">
        <ele>1345</ele>
        <time>2019-09-28T09:36:05Z</time>
      </trkpt>
      <trkpt lat="42.89638" lon="0.92441">
        <ele>1351</ele>
        <time>2019-09-28T09:36:13Z</time>
      </trkpt>
      <trkpt lat="42.89644" lon="0.92452">
        <ele>1356</ele>
        <time>2019-09-28T09:36:22Z</time>
      </trkpt>
      <trkpt lat="42.89642" lon="0.92464">
        <ele>1356</ele>
        <time>2019-09-28T09:36:30Z</time>
      </trkpt>
      <trkpt lat="42.89642" lon="0.92477">
        <ele>1354</ele>
        <time>2019-09-28T09:36:40Z</time>
      </trkpt>
      <trkpt lat="42.89641" lon="0.9249">
        <ele>1353</ele>
        <time>2019-09-28T09:36:47Z</time>
      </trkpt>
      <trkpt lat="42.89642" lon="0.92504">
        <ele>1352</ele>
        <time>2019-09-28T09:36:56Z</time>
      </trkpt>
      <trkpt lat="42.89652" lon="0.92508">
        <ele>1352</ele>
        <time>2019-09-28T09:37:07Z</time>
      </trkpt>
      <trkpt lat="42.89652" lon="0.92522">
        <ele>1350</ele>
        <time>2019-09-28T09:37:17Z</time>
      </trkpt>
      <trkpt lat="42.89645" lon="0.92531">
        <ele>1351</ele>
        <time>2019-09-28T09:37:27Z</time>
      </trkpt>
      <trkpt lat="42.89647" lon="0.92544">
        <ele>1352</ele>
        <time>2019-09-28T09:37:40Z</time>
      </trkpt>
      <trkpt lat="42.89654" lon="0.92553">
        <ele>1355</ele>
        <time>2019-09-28T09:37:49Z</time>
      </trkpt>
      <trkpt lat="42.89649" lon="0.92565">
        <ele>1352</ele>
        <time>2019-09-28T09:37:56Z</time>
      </trkpt>
      <trkpt lat="42.89651" lon="0.92578">
        <ele>1353</ele>
        <time>2019-09-28T09:38:05Z</time>
      </trkpt>
      <trkpt lat="42.89655" lon="0.9259">
        <ele>1351</ele>
        <time>2019-09-28T09:38:15Z</time>
      </trkpt>
      <trkpt lat="42.8965" lon="0.92601">
        <ele>1345</ele>
        <time>2019-09-28T09:38:25Z</time>
      </trkpt>
      <trkpt lat="42.89657" lon="0.92609">
        <ele>1349</ele>
        <time>2019-09-28T09:38:30Z</time>
      </trkpt>
      <trkpt lat="42.89656" lon="0.92623">
        <ele>1350</ele>
        <time>2019-09-28T09:38:39Z</time>
      </trkpt>
      <trkpt lat="42.89659" lon="0.92636">
        <ele>1351</ele>
        <time>2019-09-28T09:38:47Z</time>
      </trkpt>
      <trkpt lat="42.89654" lon="0.92646">
        <ele>1347</ele>
        <time>2019-09-28T09:38:53Z</time>
      </trkpt>
      <trkpt lat="42.89658" lon="0.92659">
        <ele>1347</ele>
        <time>2019-09-28T09:39:02Z</time>
      </trkpt>
      <trkpt lat="42.89656" lon="0.92671">
        <ele>1346</ele>
        <time>2019-09-28T09:39:11Z</time>
      </trkpt>
      <trkpt lat="42.89656" lon="0.92684">
        <ele>1345</ele>
        <time>2019-09-28T09:39:22Z</time>
      </trkpt>
      <trkpt lat="42.89655" lon="0.92699">
        <ele>1347</ele>
        <time>2019-09-28T09:39:32Z</time>
      </trkpt>
      <trkpt lat="42.89657" lon="0.92711">
        <ele>1345</ele>
        <time>2019-09-28T09:39:41Z</time>
      </trkpt>
      <trkpt lat="42.89662" lon="0.92722">
        <ele>1349</ele>
        <time>2019-09-28T09:39:50Z</time>
      </trkpt>
      <trkpt lat="42.89666" lon="0.92734">
        <ele>1349</ele>
        <time>2019-09-28T09:40:00Z</time>
      </trkpt>
      <trkpt lat="42.89666" lon="0.92747">
        <ele>1354</ele>
        <time>2019-09-28T09:40:07Z</time>
      </trkpt>
      <trkpt lat="42.8967" lon="0.92761">
        <ele>1351</ele>
        <time>2019-09-28T09:46:35Z</time>
      </trkpt>
      <trkpt lat="42.89673" lon="0.92774">
        <ele>1350</ele>
        <time>2019-09-28T09:46:40Z</time>
      </trkpt>
      <trkpt lat="42.89677" lon="0.92785">
        <ele>1350</ele>
        <time>2019-09-28T09:46:44Z</time>
      </trkpt>
      <trkpt lat="42.89678" lon="0.92797">
        <ele>1348</ele>
        <time>2019-09-28T09:46:49Z</time>
      </trkpt>
      <trkpt lat="42.89679" lon="0.9281">
        <ele>1353</ele>
        <time>2019-09-28T09:46:56Z</time>
      </trkpt>
      <trkpt lat="42.89674" lon="0.92821">
        <ele>1356</ele>
        <time>2019-09-28T09:47:06Z</time>
      </trkpt>
      <trkpt lat="42.89675" lon="0.92833">
        <ele>1356</ele>
        <time>2019-09-28T09:47:14Z</time>
      </trkpt>
      <trkpt lat="42.8968" lon="0.92846">
        <ele>1359</ele>
        <time>2019-09-28T09:47:21Z</time>
      </trkpt>
      <trkpt lat="42.89681" lon="0.9286">
        <ele>1356</ele>
        <time>2019-09-28T09:47:31Z</time>
      </trkpt>
      <trkpt lat="42.89686" lon="0.92871">
        <ele>1363</ele>
        <time>2019-09-28T09:47:45Z</time>
      </trkpt>
      <trkpt lat="42.89683" lon="0.92884">
        <ele>1364</ele>
        <time>2019-09-28T09:47:53Z</time>
      </trkpt>
      <trkpt lat="42.89679" lon="0.92897">
        <ele>1365</ele>
        <time>2019-09-28T09:48:01Z</time>
      </trkpt>
      <trkpt lat="42.89675" lon="0.92909">
        <ele>1363</ele>
        <time>2019-09-28T09:48:08Z</time>
      </trkpt>
      <trkpt lat="42.89676" lon="0.92922">
        <ele>1361</ele>
        <time>2019-09-28T09:48:20Z</time>
      </trkpt>
      <trkpt lat="42.89671" lon="0.92932">
        <ele>1361</ele>
        <time>2019-09-28T09:48:33Z</time>
      </trkpt>
      <trkpt lat="42.89666" lon="0.92943">
        <ele>1358</ele>
        <time>2019-09-28T09:48:42Z</time>
      </trkpt>
      <trkpt lat="42.89663" lon="0.92955">
        <ele>1359</ele>
        <time>2019-09-28T09:48:50Z</time>
      </trkpt>
      <trkpt lat="42.89657" lon="0.92965">
        <ele>1364</ele>
        <time>2019-09-28T09:48:58Z</time>
      </trkpt>
      <trkpt lat="42.89656" lon="0.92979">
        <ele>1367</ele>
        <time>2019-09-28T09:49:10Z</time>
      </trkpt>
      <trkpt lat="42.89652" lon="0.92991">
        <ele>1373</ele>
        <time>2019-09-28T09:49:23Z</time>
      </trkpt>
      <trkpt lat="42.89649" lon="0.93003">
        <ele>1372</ele>
        <time>2019-09-28T09:49:33Z</time>
      </trkpt>
      <trkpt lat="42.89653" lon="0.93014">
        <ele>1375</ele>
        <time>2019-09-28T09:49:41Z</time>
      </trkpt>
      <trkpt lat="42.89652" lon="0.93026">
        <ele>1377</ele>
        <time>2019-09-28T09:49:51Z</time>
      </trkpt>
      <trkpt lat="42.89649" lon="0.93038">
        <ele>1381</ele>
        <time>2019-09-28T09:50:02Z</time>
      </trkpt>
      <trkpt lat="42.89642" lon="0.93049">
        <ele>1379</ele>
        <time>2019-09-28T09:50:14Z</time>
      </trkpt>
      <trkpt lat="42.89646" lon="0.93062">
        <ele>1376</ele>
        <time>2019-09-28T09:50:21Z</time>
      </trkpt>
      <trkpt lat="42.89646" lon="0.93076">
        <ele>1377</ele>
        <time>2019-09-28T09:50:42Z</time>
      </trkpt>
      <trkpt lat="42.89641" lon="0.93088">
        <ele>1376</ele>
        <time>2019-09-28T09:50:47Z</time>
      </trkpt>
      <trkpt lat="42.89643" lon="0.931">
        <ele>1377</ele>
        <time>2019-09-28T09:50:55Z</time>
      </trkpt>
      <trkpt lat="42.89644" lon="0.93115">
        <ele>1377</ele>
        <time>2019-09-28T09:51:06Z</time>
      </trkpt>
      <trkpt lat="42.89638" lon="0.93127">
        <ele>1379</ele>
        <time>2019-09-28T09:51:10Z</time>
      </trkpt>
      <trkpt lat="42.89645" lon="0.93135">
        <ele>1381</ele>
        <time>2019-09-28T09:51:20Z</time>
      </trkpt>
      <trkpt lat="42.89639" lon="0.93146">
        <ele>1390</ele>
        <time>2019-09-28T09:51:42Z</time>
      </trkpt>
      <trkpt lat="42.89639" lon="0.9316">
        <ele>1395</ele>
        <time>2019-09-28T09:52:00Z</time>
      </trkpt>
      <trkpt lat="42.89635" lon="0.93172">
        <ele>1395</ele>
        <time>2019-09-28T09:52:11Z</time>
      </trkpt>
      <trkpt lat="42.89631" lon="0.93184">
        <ele>1389</ele>
        <time>2019-09-28T09:52:22Z</time>
      </trkpt>
      <trkpt lat="42.8963" lon="0.93197">
        <ele>1396</ele>
        <time>2019-09-28T09:52:37Z</time>
      </trkpt>
      <trkpt lat="42.8963" lon="0.9321">
        <ele>1395</ele>
        <time>2019-09-28T09:52:50Z</time>
      </trkpt>
      <trkpt lat="42.89624" lon="0.9322">
        <ele>1402</ele>
        <time>2019-09-28T09:53:02Z</time>
      </trkpt>
      <trkpt lat="42.89619" lon="0.93232">
        <ele>1404</ele>
        <time>2019-09-28T09:53:19Z</time>
      </trkpt>
      <trkpt lat="42.8962" lon="0.93245">
        <ele>1408</ele>
        <time>2019-09-28T09:53:34Z</time>
      </trkpt>
      <trkpt lat="42.89622" lon="0.93258">
        <ele>1409</ele>
        <time>2019-09-28T09:53:43Z</time>
      </trkpt>
      <trkpt lat="42.89617" lon="0.93269">
        <ele>1410</ele>
        <time>2019-09-28T09:53:52Z</time>
      </trkpt>
      <trkpt lat="42.89619" lon="0.93282">
        <ele>1410</ele>
        <time>2019-09-28T09:54:06Z</time>
      </trkpt>
      <trkpt lat="42.89618" lon="0.93295">
        <ele>1411</ele>
        <time>2019-09-28T09:54:30Z</time>
      </trkpt>
      <trkpt lat="42.89619" lon="0.93308">
        <ele>1413</ele>
        <time>2019-09-28T09:54:35Z</time>
      </trkpt>
      <trkpt lat="42.89621" lon="0.93322">
        <ele>1416</ele>
        <time>2019-09-28T09:54:49Z</time>
      </trkpt>
      <trkpt lat="42.89618" lon="0.93335">
        <ele>1416</ele>
        <time>2019-09-28T09:54:59Z</time>
      </trkpt>
      <trkpt lat="42.89617" lon="0.93348">
        <ele>1415</ele>
        <time>2019-09-28T09:55:11Z</time>
      </trkpt>
      <trkpt lat="42.89616" lon="0.93361">
        <ele>1421</ele>
        <time>2019-09-28T09:55:23Z</time>
      </trkpt>
      <trkpt lat="42.89615" lon="0.93374">
        <ele>1423</ele>
        <time>2019-09-28T09:55:33Z</time>
      </trkpt>
      <trkpt lat="42.8961" lon="0.93384">
        <ele>1420</ele>
        <time>2019-09-28T09:55:46Z</time>
      </trkpt>
      <trkpt lat="42.89606" lon="0.93396">
        <ele>1421</ele>
        <time>2019-09-28T09:56:14Z</time>
      </trkpt>
      <trkpt lat="42.89603" lon="0.93409">
        <ele>1426</ele>
        <time>2019-09-28T09:56:29Z</time>
      </trkpt>
      <trkpt lat="42.89601" lon="0.93421">
        <ele>1426</ele>
        <time>2019-09-28T09:56:41Z</time>
      </trkpt>
      <trkpt lat="42.89598" lon="0.93436">
        <ele>1425</ele>
        <time>2019-09-28T09:56:53Z</time>
      </trkpt>
      <trkpt lat="42.89604" lon="0.93446">
        <ele>1429</ele>
        <time>2019-09-28T09:57:03Z</time>
      </trkpt>
      <trkpt lat="42.89601" lon="0.93458">
        <ele>1429</ele>
        <time>2019-09-28T09:57:13Z</time>
      </trkpt>
      <trkpt lat="42.89603" lon="0.93472">
        <ele>1431</ele>
        <time>2019-09-28T09:57:27Z</time>
      </trkpt>
      <trkpt lat="42.89603" lon="0.93485">
        <ele>1435</ele>
        <time>2019-09-28T09:57:38Z</time>
      </trkpt>
      <trkpt lat="42.89602" lon="0.93498">
        <ele>1437</ele>
        <time>2019-09-28T09:57:52Z</time>
      </trkpt>
      <trkpt lat="42.89598" lon="0.93509">
        <ele>1442</ele>
        <time>2019-09-28T09:58:10Z</time>
      </trkpt>
      <trkpt lat="42.89595" lon="0.93522">
        <ele>1442</ele>
        <time>2019-09-28T09:58:23Z</time>
      </trkpt>
      <trkpt lat="42.89593" lon="0.93534">
        <ele>1438</ele>
        <time>2019-09-28T09:58:49Z</time>
      </trkpt>
      <trkpt lat="42.8959" lon="0.93547">
        <ele>1437</ele>
        <time>2019-09-28T09:58:58Z</time>
      </trkpt>
      <trkpt lat="42.89595" lon="0.93558">
        <ele>1437</ele>
        <time>2019-09-28T09:59:10Z</time>
      </trkpt>
      <trkpt lat="42.896" lon="0.9357">
        <ele>1439</ele>
        <time>2019-09-28T09:59:18Z</time>
      </trkpt>
      <trkpt lat="42.89596" lon="0.93583">
        <ele>1446</ele>
        <time>2019-09-28T09:59:31Z</time>
      </trkpt>
      <trkpt lat="42.89595" lon="0.93596">
        <ele>1446</ele>
        <time>2019-09-28T09:59:44Z</time>
      </trkpt>
      <trkpt lat="42.89596" lon="0.93609">
        <ele>1446</ele>
        <time>2019-09-28T09:59:54Z</time>
      </trkpt>
      <trkpt lat="42.89599" lon="0.93622">
        <ele>1445</ele>
        <time>2019-09-28T10:00:03Z</time>
      </trkpt>
      <trkpt lat="42.89604" lon="0.93633">
        <ele>1442</ele>
        <time>2019-09-28T10:00:12Z</time>
      </trkpt>
      <trkpt lat="42.89611" lon="0.93642">
        <ele>1445</ele>
        <time>2019-09-28T10:00:17Z</time>
      </trkpt>
      <trkpt lat="42.89612" lon="0.93655">
        <ele>1445</ele>
        <time>2019-09-28T10:00:29Z</time>
      </trkpt>
      <trkpt lat="42.89617" lon="0.93667">
        <ele>1444</ele>
        <time>2019-09-28T10:00:39Z</time>
      </trkpt>
      <trkpt lat="42.89623" lon="0.93677">
        <ele>1442</ele>
        <time>2019-09-28T10:00:50Z</time>
      </trkpt>
      <trkpt lat="42.89625" lon="0.9369">
        <ele>1440</ele>
        <time>2019-09-28T10:01:03Z</time>
      </trkpt>
      <trkpt lat="42.8963" lon="0.93701">
        <ele>1440</ele>
        <time>2019-09-28T10:01:30Z</time>
      </trkpt>
      <trkpt lat="42.89635" lon="0.93713">
        <ele>1440</ele>
        <time>2019-09-28T10:01:37Z</time>
      </trkpt>
      <trkpt lat="42.8964" lon="0.93724">
        <ele>1444</ele>
        <time>2019-09-28T10:01:45Z</time>
      </trkpt>
      <trkpt lat="42.89646" lon="0.93735">
        <ele>1445</ele>
        <time>2019-09-28T10:01:55Z</time>
      </trkpt>
      <trkpt lat="42.8965" lon="0.93747">
        <ele>1440</ele>
        <time>2019-09-28T10:02:06Z</time>
      </trkpt>
      <trkpt lat="42.89657" lon="0.93756">
        <ele>1438</ele>
        <time>2019-09-28T10:02:19Z</time>
      </trkpt>
      <trkpt lat="42.89662" lon="0.93767">
        <ele>1440</ele>
        <time>2019-09-28T10:02:48Z</time>
      </trkpt>
      <trkpt lat="42.89672" lon="0.9377">
        <ele>1442</ele>
        <time>2019-09-28T10:02:57Z</time>
      </trkpt>
      <trkpt lat="42.89681" lon="0.93765">
        <ele>1442</ele>
        <time>2019-09-28T10:03:05Z</time>
      </trkpt>
      <trkpt lat="42.8969" lon="0.93763">
        <ele>1441</ele>
        <time>2019-09-28T10:03:14Z</time>
      </trkpt>
      <trkpt lat="42.89699" lon="0.93764">
        <ele>1443</ele>
        <time>2019-09-28T10:03:25Z</time>
      </trkpt>
      <trkpt lat="42.89709" lon="0.93762">
        <ele>1449</ele>
        <time>2019-09-28T10:03:59Z</time>
      </trkpt>
      <trkpt lat="42.89718" lon="0.93759">
        <ele>1449</ele>
        <time>2019-09-28T10:04:09Z</time>
      </trkpt>
      <trkpt lat="42.89727" lon="0.93755">
        <ele>1449</ele>
        <time>2019-09-28T10:04:19Z</time>
      </trkpt>
      <trkpt lat="42.89736" lon="0.93748">
        <ele>1448</ele>
        <time>2019-09-28T10:04:27Z</time>
      </trkpt>
      <trkpt lat="42.89744" lon="0.93743">
        <ele>1450</ele>
        <time>2019-09-28T10:04:38Z</time>
      </trkpt>
      <trkpt lat="42.89735" lon="0.93748">
        <ele>1450</ele>
        <time>2019-09-28T10:06:11Z</time>
      </trkpt>
      <trkpt lat="42.89726" lon="0.93753">
        <ele>1448</ele>
        <time>2019-09-28T10:06:21Z</time>
      </trkpt>
      <trkpt lat="42.89719" lon="0.93761">
        <ele>1451</ele>
        <time>2019-09-28T10:06:37Z</time>
      </trkpt>
      <trkpt lat="42.89713" lon="0.9377">
        <ele>1452</ele>
        <time>2019-09-28T10:06:49Z</time>
      </trkpt>
      <trkpt lat="42.8971" lon="0.93782">
        <ele>1456</ele>
        <time>2019-09-28T10:07:05Z</time>
      </trkpt>
      <trkpt lat="42.89704" lon="0.93792">
        <ele>1454</ele>
        <time>2019-09-28T10:07:14Z</time>
      </trkpt>
      <trkpt lat="42.89699" lon="0.93803">
        <ele>1451</ele>
        <time>2019-09-28T10:07:30Z</time>
      </trkpt>
      <trkpt lat="42.89693" lon="0.93813">
        <ele>1456</ele>
        <time>2019-09-28T10:07:44Z</time>
      </trkpt>
      <trkpt lat="42.89687" lon="0.93823">
        <ele>1455</ele>
        <time>2019-09-28T10:07:56Z</time>
      </trkpt>
      <trkpt lat="42.89681" lon="0.93832">
        <ele>1460</ele>
        <time>2019-09-28T10:08:09Z</time>
      </trkpt>
      <trkpt lat="42.89676" lon="0.93842">
        <ele>1465</ele>
        <time>2019-09-28T10:08:24Z</time>
      </trkpt>
      <trkpt lat="42.89679" lon="0.93854">
        <ele>1473</ele>
        <time>2019-09-28T10:09:15Z</time>
      </trkpt>
      <trkpt lat="42.89674" lon="0.93865">
        <ele>1473</ele>
        <time>2019-09-28T10:09:42Z</time>
      </trkpt>
      <trkpt lat="42.89668" lon="0.93876">
        <ele>1476</ele>
        <time>2019-09-28T10:09:53Z</time>
      </trkpt>
      <trkpt lat="42.89661" lon="0.93883">
        <ele>1480</ele>
        <time>2019-09-28T10:10:09Z</time>
      </trkpt>
      <trkpt lat="42.89658" lon="0.93895">
        <ele>1478</ele>
        <time>2019-09-28T10:10:22Z</time>
      </trkpt>
      <trkpt lat="42.89651" lon="0.93903">
        <ele>1482</ele>
        <time>2019-09-28T10:10:36Z</time>
      </trkpt>
      <trkpt lat="42.89643" lon="0.9391">
        <ele>1482</ele>
        <time>2019-09-28T10:10:54Z</time>
      </trkpt>
      <trkpt lat="42.89636" lon="0.93919">
        <ele>1485</ele>
        <time>2019-09-28T10:11:22Z</time>
      </trkpt>
      <trkpt lat="42.8963" lon="0.93928">
        <ele>1489</ele>
        <time>2019-09-28T10:11:31Z</time>
      </trkpt>
      <trkpt lat="42.89621" lon="0.93933">
        <ele>1496</ele>
        <time>2019-09-28T10:11:54Z</time>
      </trkpt>
      <trkpt lat="42.89611" lon="0.93934">
        <ele>1500</ele>
        <time>2019-09-28T10:12:19Z</time>
      </trkpt>
      <trkpt lat="42.89598" lon="0.93936">
        <ele>1502</ele>
        <time>2019-09-28T10:12:55Z</time>
      </trkpt>
      <trkpt lat="42.89595" lon="0.93948">
        <ele>1507</ele>
        <time>2019-09-28T10:14:55Z</time>
      </trkpt>
      <trkpt lat="42.89595" lon="0.93961">
        <ele>1513</ele>
        <time>2019-09-28T10:15:06Z</time>
      </trkpt>
      <trkpt lat="42.89594" lon="0.93973">
        <ele>1525</ele>
        <time>2019-09-28T11:30:37Z</time>
      </trkpt>
      <trkpt lat="42.89597" lon="0.93986">
        <ele>1522</ele>
        <time>2019-09-28T11:30:52Z</time>
      </trkpt>
      <trkpt lat="42.89602" lon="0.93997">
        <ele>1525</ele>
        <time>2019-09-28T11:31:00Z</time>
      </trkpt>
      <trkpt lat="42.89604" lon="0.9401">
        <ele>1531</ele>
        <time>2019-09-28T11:31:21Z</time>
      </trkpt>
      <trkpt lat="42.89609" lon="0.94021">
        <ele>1531</ele>
        <time>2019-09-28T11:31:32Z</time>
      </trkpt>
      <trkpt lat="42.89614" lon="0.94032">
        <ele>1533</ele>
        <time>2019-09-28T11:31:45Z</time>
      </trkpt>
      <trkpt lat="42.8962" lon="0.94042">
        <ele>1534</ele>
        <time>2019-09-28T11:31:54Z</time>
      </trkpt>
      <trkpt lat="42.89624" lon="0.94053">
        <ele>1534</ele>
        <time>2019-09-28T11:32:10Z</time>
      </trkpt>
      <trkpt lat="42.89627" lon="0.94065">
        <ele>1534</ele>
        <time>2019-09-28T11:32:24Z</time>
      </trkpt>
      <trkpt lat="42.89631" lon="0.94077">
        <ele>1532</ele>
        <time>2019-09-28T11:32:38Z</time>
      </trkpt>
      <trkpt lat="42.89635" lon="0.94089">
        <ele>1533</ele>
        <time>2019-09-28T11:32:55Z</time>
      </trkpt>
      <trkpt lat="42.89635" lon="0.94101">
        <ele>1537</ele>
        <time>2019-09-28T11:33:07Z</time>
      </trkpt>
      <trkpt lat="42.89638" lon="0.94114">
        <ele>1540</ele>
        <time>2019-09-28T11:33:16Z</time>
      </trkpt>
      <trkpt lat="42.8964" lon="0.94126">
        <ele>1542</ele>
        <time>2019-09-28T11:33:27Z</time>
      </trkpt>
      <trkpt lat="42.89636" lon="0.94138">
        <ele>1547</ele>
        <time>2019-09-28T11:33:38Z</time>
      </trkpt>
      <trkpt lat="42.89635" lon="0.9415">
        <ele>1550</ele>
        <time>2019-09-28T11:33:50Z</time>
      </trkpt>
      <trkpt lat="42.89632" lon="0.94163">
        <ele>1550</ele>
        <time>2019-09-28T11:33:58Z</time>
      </trkpt>
      <trkpt lat="42.89626" lon="0.94174">
        <ele>1553</ele>
        <time>2019-09-28T11:34:09Z</time>
      </trkpt>
      <trkpt lat="42.89626" lon="0.94186">
        <ele>1552</ele>
        <time>2019-09-28T11:34:17Z</time>
      </trkpt>
      <trkpt lat="42.89626" lon="0.942">
        <ele>1554</ele>
        <time>2019-09-28T11:34:32Z</time>
      </trkpt>
      <trkpt lat="42.89625" lon="0.94213">
        <ele>1547</ele>
        <time>2019-09-28T11:41:01Z</time>
      </trkpt>
      <trkpt lat="42.89624" lon="0.94226">
        <ele>1547</ele>
        <time>2019-09-28T11:41:11Z</time>
      </trkpt>
      <trkpt lat="42.89624" lon="0.94241">
        <ele>1543</ele>
        <time>2019-09-28T11:41:30Z</time>
      </trkpt>
      <trkpt lat="42.89619" lon="0.94252">
        <ele>1545</ele>
        <time>2019-09-28T11:41:44Z</time>
      </trkpt>
      <trkpt lat="42.89621" lon="0.94266">
        <ele>1538</ele>
        <time>2019-09-28T11:42:13Z</time>
      </trkpt>
      <trkpt lat="42.89623" lon="0.94279">
        <ele>1533</ele>
        <time>2019-09-28T11:42:48Z</time>
      </trkpt>
      <trkpt lat="42.89621" lon="0.94292">
        <ele>1531</ele>
        <time>2019-09-28T11:43:00Z</time>
      </trkpt>
      <trkpt lat="42.89621" lon="0.94304">
        <ele>1525</ele>
        <time>2019-09-28T11:43:18Z</time>
      </trkpt>
      <trkpt lat="42.8962" lon="0.94317">
        <ele>1521</ele>
        <time>2019-09-28T11:43:29Z</time>
      </trkpt>
      <trkpt lat="42.89622" lon="0.94329">
        <ele>1517</ele>
        <time>2019-09-28T11:43:38Z</time>
      </trkpt>
      <trkpt lat="42.89624" lon="0.94343">
        <ele>1510</ele>
        <time>2019-09-28T11:43:50Z</time>
      </trkpt>
      <trkpt lat="42.89625" lon="0.94358">
        <ele>1506</ele>
        <time>2019-09-28T11:44:02Z</time>
      </trkpt>
      <trkpt lat="42.89628" lon="0.94369">
        <ele>1505</ele>
        <time>2019-09-28T11:44:14Z</time>
      </trkpt>
      <trkpt lat="42.89628" lon="0.94382">
        <ele>1504</ele>
        <time>2019-09-28T11:44:24Z</time>
      </trkpt>
      <trkpt lat="42.89629" lon="0.94396">
        <ele>1507</ele>
        <time>2019-09-28T11:44:32Z</time>
      </trkpt>
      <trkpt lat="42.89627" lon="0.94408">
        <ele>1505</ele>
        <time>2019-09-28T11:44:43Z</time>
      </trkpt>
      <trkpt lat="42.89621" lon="0.94418">
        <ele>1501</ele>
        <time>2019-09-28T11:44:56Z</time>
      </trkpt>
      <trkpt lat="42.8962" lon="0.94432">
        <ele>1499</ele>
        <time>2019-09-28T11:45:08Z</time>
      </trkpt>
      <trkpt lat="42.89615" lon="0.94443">
        <ele>1496</ele>
        <time>2019-09-28T11:45:18Z</time>
      </trkpt>
      <trkpt lat="42.89613" lon="0.94455">
        <ele>1493</ele>
        <time>2019-09-28T11:45:31Z</time>
      </trkpt>
      <trkpt lat="42.89613" lon="0.94469">
        <ele>1489</ele>
        <time>2019-09-28T11:45:44Z</time>
      </trkpt>
      <trkpt lat="42.89609" lon="0.9448">
        <ele>1495</ele>
        <time>2019-09-28T11:46:00Z</time>
      </trkpt>
      <trkpt lat="42.89608" lon="0.94494">
        <ele>1493</ele>
        <time>2019-09-28T11:46:10Z</time>
      </trkpt>
      <trkpt lat="42.89607" lon="0.94506">
        <ele>1491</ele>
        <time>2019-09-28T11:46:20Z</time>
      </trkpt>
      <trkpt lat="42.89607" lon="0.94519">
        <ele>1487</ele>
        <time>2019-09-28T11:46:30Z</time>
      </trkpt>
      <trkpt lat="42.8961" lon="0.9453">
        <ele>1485</ele>
        <time>2019-09-28T11:46:43Z</time>
      </trkpt>
      <trkpt lat="42.89609" lon="0.94543">
        <ele>1480</ele>
        <time>2019-09-28T11:46:53Z</time>
      </trkpt>
      <trkpt lat="42.89599" lon="0.94546">
        <ele>1479</ele>
        <time>2019-09-28T11:47:08Z</time>
      </trkpt>
      <trkpt lat="42.89594" lon="0.94557">
        <ele>1478</ele>
        <time>2019-09-28T11:47:19Z</time>
      </trkpt>
      <trkpt lat="42.89587" lon="0.94564">
        <ele>1476</ele>
        <time>2019-09-28T11:47:29Z</time>
      </trkpt>
      <trkpt lat="42.89581" lon="0.94573">
        <ele>1472</ele>
        <time>2019-09-28T11:47:40Z</time>
      </trkpt>
      <trkpt lat="42.8958" lon="0.94586">
        <ele>1471</ele>
        <time>2019-09-28T11:47:50Z</time>
      </trkpt>
      <trkpt lat="42.89574" lon="0.94595">
        <ele>1471</ele>
        <time>2019-09-28T11:47:58Z</time>
      </trkpt>
      <trkpt lat="42.8957" lon="0.94607">
        <ele>1466</ele>
        <time>2019-09-28T11:48:09Z</time>
      </trkpt>
      <trkpt lat="42.89568" lon="0.9462">
        <ele>1468</ele>
        <time>2019-09-28T11:48:18Z</time>
      </trkpt>
      <trkpt lat="42.89561" lon="0.94629">
        <ele>1468</ele>
        <time>2019-09-28T11:48:27Z</time>
      </trkpt>
      <trkpt lat="42.89555" lon="0.94639">
        <ele>1466</ele>
        <time>2019-09-28T11:48:37Z</time>
      </trkpt>
      <trkpt lat="42.89549" lon="0.9465">
        <ele>1463</ele>
        <time>2019-09-28T11:48:46Z</time>
      </trkpt>
      <trkpt lat="42.89544" lon="0.9466">
        <ele>1460</ele>
        <time>2019-09-28T11:48:52Z</time>
      </trkpt>
      <trkpt lat="42.89538" lon="0.94669">
        <ele>1453</ele>
        <time>2019-09-28T11:49:02Z</time>
      </trkpt>
      <trkpt lat="42.8953" lon="0.94677">
        <ele>1453</ele>
        <time>2019-09-28T11:49:16Z</time>
      </trkpt>
      <trkpt lat="42.8953" lon="0.94691">
        <ele>1453</ele>
        <time>2019-09-28T11:49:23Z</time>
      </trkpt>
      <trkpt lat="42.89523" lon="0.947">
        <ele>1453</ele>
        <time>2019-09-28T11:49:32Z</time>
      </trkpt>
      <trkpt lat="42.89517" lon="0.9471">
        <ele>1453</ele>
        <time>2019-09-28T11:49:40Z</time>
      </trkpt>
      <trkpt lat="42.89513" lon="0.94721">
        <ele>1452</ele>
        <time>2019-09-28T11:49:48Z</time>
      </trkpt>
      <trkpt lat="42.89508" lon="0.94731">
        <ele>1451</ele>
        <time>2019-09-28T11:49:56Z</time>
      </trkpt>
      <trkpt lat="42.89504" lon="0.94743">
        <ele>1450</ele>
        <time>2019-09-28T11:50:05Z</time>
      </trkpt>
      <trkpt lat="42.89499" lon="0.94754">
        <ele>1449</ele>
        <time>2019-09-28T11:50:12Z</time>
      </trkpt>
      <trkpt lat="42.89499" lon="0.94769">
        <ele>1445</ele>
        <time>2019-09-28T11:50:18Z</time>
      </trkpt>
      <trkpt lat="42.89494" lon="0.9478">
        <ele>1447</ele>
        <time>2019-09-28T11:50:25Z</time>
      </trkpt>
      <trkpt lat="42.89491" lon="0.94792">
        <ele>1449</ele>
        <time>2019-09-28T11:50:35Z</time>
      </trkpt>
      <trkpt lat="42.89491" lon="0.94805">
        <ele>1451</ele>
        <time>2019-09-28T11:51:04Z</time>
      </trkpt>
      <trkpt lat="42.89495" lon="0.94816">
        <ele>1451</ele>
        <time>2019-09-28T11:51:13Z</time>
      </trkpt>
      <trkpt lat="42.89501" lon="0.94828">
        <ele>1451</ele>
        <time>2019-09-28T11:51:30Z</time>
      </trkpt>
      <trkpt lat="42.89509" lon="0.94833">
        <ele>1450</ele>
        <time>2019-09-28T11:51:41Z</time>
      </trkpt>
      <trkpt lat="42.89511" lon="0.94846">
        <ele>1454</ele>
        <time>2019-09-28T11:52:01Z</time>
      </trkpt>
      <trkpt lat="42.89509" lon="0.94833">
        <ele>1452</ele>
        <time>2019-09-28T12:06:21Z</time>
      </trkpt>
      <trkpt lat="42.89504" lon="0.94822">
        <ele>1449</ele>
        <time>2019-09-28T12:06:32Z</time>
      </trkpt>
      <trkpt lat="42.89499" lon="0.94811">
        <ele>1449</ele>
        <time>2019-09-28T12:06:43Z</time>
      </trkpt>
      <trkpt lat="42.89493" lon="0.94801">
        <ele>1447</ele>
        <time>2019-09-28T12:06:54Z</time>
      </trkpt>
      <trkpt lat="42.89485" lon="0.94797">
        <ele>1444</ele>
        <time>2019-09-28T12:07:02Z</time>
      </trkpt>
      <trkpt lat="42.89477" lon="0.94805">
        <ele>1442</ele>
        <time>2019-09-28T12:07:14Z</time>
      </trkpt>
      <trkpt lat="42.89476" lon="0.94817">
        <ele>1440</ele>
        <time>2019-09-28T12:07:24Z</time>
      </trkpt>
      <trkpt lat="42.89469" lon="0.94827">
        <ele>1442</ele>
        <time>2019-09-28T12:07:32Z</time>
      </trkpt>
      <trkpt lat="42.89465" lon="0.94838">
        <ele>1440</ele>
        <time>2019-09-28T12:07:40Z</time>
      </trkpt>
      <trkpt lat="42.89456" lon="0.94839">
        <ele>1439</ele>
        <time>2019-09-28T12:07:50Z</time>
      </trkpt>
      <trkpt lat="42.89446" lon="0.94842">
        <ele>1439</ele>
        <time>2019-09-28T12:08:00Z</time>
      </trkpt>
      <trkpt lat="42.89437" lon="0.94845">
        <ele>1440</ele>
        <time>2019-09-28T12:08:11Z</time>
      </trkpt>
      <trkpt lat="42.89428" lon="0.94848">
        <ele>1439</ele>
        <time>2019-09-28T12:08:20Z</time>
      </trkpt>
      <trkpt lat="42.89418" lon="0.94848">
        <ele>1440</ele>
        <time>2019-09-28T12:08:30Z</time>
      </trkpt>
      <trkpt lat="42.89409" lon="0.94846">
        <ele>1438</ele>
        <time>2019-09-28T12:08:37Z</time>
      </trkpt>
      <trkpt lat="42.894" lon="0.94845">
        <ele>1440</ele>
        <time>2019-09-28T12:08:45Z</time>
      </trkpt>
      <trkpt lat="42.89391" lon="0.94844">
        <ele>1437</ele>
        <time>2019-09-28T12:08:56Z</time>
      </trkpt>
      <trkpt lat="42.89382" lon="0.94839">
        <ele>1434</ele>
        <time>2019-09-28T12:09:05Z</time>
      </trkpt>
      <trkpt lat="42.89373" lon="0.94835">
        <ele>1430</ele>
        <time>2019-09-28T12:09:20Z</time>
      </trkpt>
      <trkpt lat="42.89364" lon="0.94832">
        <ele>1427</ele>
        <time>2019-09-28T12:09:29Z</time>
      </trkpt>
      <trkpt lat="42.89354" lon="0.94828">
        <ele>1424</ele>
        <time>2019-09-28T12:09:38Z</time>
      </trkpt>
      <trkpt lat="42.89345" lon="0.94834">
        <ele>1424</ele>
        <time>2019-09-28T12:09:50Z</time>
      </trkpt>
      <trkpt lat="42.89348" lon="0.94845">
        <ele>1422</ele>
        <time>2019-09-28T12:09:56Z</time>
      </trkpt>
      <trkpt lat="42.89347" lon="0.94858">
        <ele>1422</ele>
        <time>2019-09-28T12:10:09Z</time>
      </trkpt>
      <trkpt lat="42.89338" lon="0.9486">
        <ele>1415</ele>
        <time>2019-09-28T12:10:19Z</time>
      </trkpt>
      <trkpt lat="42.89344" lon="0.94869">
        <ele>1408</ele>
        <time>2019-09-28T12:10:49Z</time>
      </trkpt>
      <trkpt lat="42.89342" lon="0.94882">
        <ele>1402</ele>
        <time>2019-09-28T12:11:09Z</time>
      </trkpt>
      <trkpt lat="42.89343" lon="0.94895">
        <ele>1397</ele>
        <time>2019-09-28T12:11:18Z</time>
      </trkpt>
      <trkpt lat="42.89342" lon="0.9491">
        <ele>1397</ele>
        <time>2019-09-28T12:11:32Z</time>
      </trkpt>
      <trkpt lat="42.89342" lon="0.94922">
        <ele>1387</ele>
        <time>2019-09-28T12:11:49Z</time>
      </trkpt>
      <trkpt lat="42.89342" lon="0.94935">
        <ele>1387</ele>
        <time>2019-09-28T12:12:00Z</time>
      </trkpt>
      <trkpt lat="42.89334" lon="0.94943">
        <ele>1387</ele>
        <time>2019-09-28T12:12:08Z</time>
      </trkpt>
      <trkpt lat="42.89325" lon="0.94945">
        <ele>1378</ele>
        <time>2019-09-28T12:12:52Z</time>
      </trkpt>
      <trkpt lat="42.89318" lon="0.94955">
        <ele>1376</ele>
        <time>2019-09-28T12:13:03Z</time>
      </trkpt>
      <trkpt lat="42.89312" lon="0.94964">
        <ele>1376</ele>
        <time>2019-09-28T12:13:12Z</time>
      </trkpt>
      <trkpt lat="42.89305" lon="0.94973">
        <ele>1375</ele>
        <time>2019-09-28T12:13:22Z</time>
      </trkpt>
      <trkpt lat="42.89299" lon="0.94983">
        <ele>1374</ele>
        <time>2019-09-28T12:13:32Z</time>
      </trkpt>
      <trkpt lat="42.8929" lon="0.9499">
        <ele>1369</ele>
        <time>2019-09-28T12:13:44Z</time>
      </trkpt>
      <trkpt lat="42.89281" lon="0.94997">
        <ele>1367</ele>
        <time>2019-09-28T12:13:57Z</time>
      </trkpt>
      <trkpt lat="42.89275" lon="0.95006">
        <ele>1366</ele>
        <time>2019-09-28T12:14:03Z</time>
      </trkpt>
      <trkpt lat="42.89266" lon="0.95014">
        <ele>1364</ele>
        <time>2019-09-28T12:14:13Z</time>
      </trkpt>
      <trkpt lat="42.89258" lon="0.95021">
        <ele>1364</ele>
        <time>2019-09-28T12:14:19Z</time>
      </trkpt>
      <trkpt lat="42.8925" lon="0.95026">
        <ele>1364</ele>
        <time>2019-09-28T12:14:33Z</time>
      </trkpt>
      <trkpt lat="42.89243" lon="0.95036">
        <ele>1360</ele>
        <time>2019-09-28T12:14:43Z</time>
      </trkpt>
      <trkpt lat="42.89233" lon="0.95039">
        <ele>1353</ele>
        <time>2019-09-28T12:14:50Z</time>
      </trkpt>
      <trkpt lat="42.89232" lon="0.95052">
        <ele>1353</ele>
        <time>2019-09-28T12:14:59Z</time>
      </trkpt>
      <trkpt lat="42.89226" lon="0.95062">
        <ele>1351</ele>
        <time>2019-09-28T12:15:22Z</time>
      </trkpt>
      <trkpt lat="42.89218" lon="0.95071">
        <ele>1353</ele>
        <time>2019-09-28T12:15:29Z</time>
      </trkpt>
      <trkpt lat="42.89208" lon="0.95073">
        <ele>1345</ele>
        <time>2019-09-28T12:16:10Z</time>
      </trkpt>
      <trkpt lat="42.89206" lon="0.95085">
        <ele>1343</ele>
        <time>2019-09-28T12:16:37Z</time>
      </trkpt>
      <trkpt lat="42.89194" lon="0.95091">
        <ele>1343</ele>
        <time>2019-09-28T12:16:41Z</time>
      </trkpt>
      <trkpt lat="42.89187" lon="0.95103">
        <ele>1346</ele>
        <time>2019-09-28T12:16:44Z</time>
      </trkpt>
      <trkpt lat="42.89176" lon="0.95104">
        <ele>1346</ele>
        <time>2019-09-28T12:16:50Z</time>
      </trkpt>
      <trkpt lat="42.8917" lon="0.95115">
        <ele>1341</ele>
        <time>2019-09-28T12:16:57Z</time>
      </trkpt>
      <trkpt lat="42.89163" lon="0.95123">
        <ele>1342</ele>
        <time>2019-09-28T12:17:04Z</time>
      </trkpt>
      <trkpt lat="42.89153" lon="0.95121">
        <ele>1343</ele>
        <time>2019-09-28T12:17:13Z</time>
      </trkpt>
      <trkpt lat="42.89143" lon="0.95122">
        <ele>1342</ele>
        <time>2019-09-28T12:17:25Z</time>
      </trkpt>
      <trkpt lat="42.89134" lon="0.9512">
        <ele>1340</ele>
        <time>2019-09-28T12:17:34Z</time>
      </trkpt>
      <trkpt lat="42.89127" lon="0.95111">
        <ele>1332</ele>
        <time>2019-09-28T12:17:49Z</time>
      </trkpt>
      <trkpt lat="42.8912" lon="0.95102">
        <ele>1332</ele>
        <time>2019-09-28T12:17:55Z</time>
      </trkpt>
      <trkpt lat="42.89116" lon="0.95091">
        <ele>1331</ele>
        <time>2019-09-28T12:18:09Z</time>
      </trkpt>
      <trkpt lat="42.89108" lon="0.95081">
        <ele>1331</ele>
        <time>2019-09-28T12:18:34Z</time>
      </trkpt>
      <trkpt lat="42.89101" lon="0.95071">
        <ele>1326</ele>
        <time>2019-09-28T12:18:42Z</time>
      </trkpt>
      <trkpt lat="42.89095" lon="0.95061">
        <ele>1321</ele>
        <time>2019-09-28T12:18:49Z</time>
      </trkpt>
      <trkpt lat="42.89087" lon="0.95054">
        <ele>1322</ele>
        <time>2019-09-28T12:19:29Z</time>
      </trkpt>
      <trkpt lat="42.8908" lon="0.95046">
        <ele>1313</ele>
        <time>2019-09-28T12:20:27Z</time>
      </trkpt>
      <trkpt lat="42.89071" lon="0.9504">
        <ele>1314</ele>
        <time>2019-09-28T12:20:36Z</time>
      </trkpt>
      <trkpt lat="42.89063" lon="0.95033">
        <ele>1314</ele>
        <time>2019-09-28T12:20:48Z</time>
      </trkpt>
      <trkpt lat="42.89053" lon="0.95032">
        <ele>1312</ele>
        <time>2019-09-28T12:20:59Z</time>
      </trkpt>
      <trkpt lat="42.89043" lon="0.95031">
        <ele>1307</ele>
        <time>2019-09-28T12:21:10Z</time>
      </trkpt>
      <trkpt lat="42.89034" lon="0.9503">
        <ele>1306</ele>
        <time>2019-09-28T12:21:18Z</time>
      </trkpt>
      <trkpt lat="42.89024" lon="0.95026">
        <ele>1305</ele>
        <time>2019-09-28T12:21:26Z</time>
      </trkpt>
      <trkpt lat="42.89014" lon="0.95027">
        <ele>1301</ele>
        <time>2019-09-28T12:21:38Z</time>
      </trkpt>
      <trkpt lat="42.89004" lon="0.9503">
        <ele>1300</ele>
        <time>2019-09-28T12:21:50Z</time>
      </trkpt>
      <trkpt lat="42.88998" lon="0.95041">
        <ele>1299</ele>
        <time>2019-09-28T12:22:02Z</time>
      </trkpt>
      <trkpt lat="42.89001" lon="0.95053">
        <ele>1292</ele>
        <time>2019-09-28T12:22:18Z</time>
      </trkpt>
      <trkpt lat="42.89009" lon="0.9506">
        <ele>1291</ele>
        <time>2019-09-28T12:22:28Z</time>
      </trkpt>
      <trkpt lat="42.8901" lon="0.95073">
        <ele>1292</ele>
        <time>2019-09-28T12:22:37Z</time>
      </trkpt>
      <trkpt lat="42.89008" lon="0.95085">
        <ele>1287</ele>
        <time>2019-09-28T12:22:44Z</time>
      </trkpt>
      <trkpt lat="42.89011" lon="0.95099">
        <ele>1280</ele>
        <time>2019-09-28T12:22:52Z</time>
      </trkpt>
      <trkpt lat="42.8901" lon="0.95112">
        <ele>1275</ele>
        <time>2019-09-28T12:23:13Z</time>
      </trkpt>
      <trkpt lat="42.89005" lon="0.95124">
        <ele>1277</ele>
        <time>2019-09-28T12:23:25Z</time>
      </trkpt>
      <trkpt lat="42.89003" lon="0.95137">
        <ele>1277</ele>
        <time>2019-09-28T12:23:34Z</time>
      </trkpt>
      <trkpt lat="42.89001" lon="0.95149">
        <ele>1274</ele>
        <time>2019-09-28T12:23:41Z</time>
      </trkpt>
      <trkpt lat="42.88998" lon="0.95162">
        <ele>1267</ele>
        <time>2019-09-28T12:23:50Z</time>
      </trkpt>
      <trkpt lat="42.88997" lon="0.95175">
        <ele>1266</ele>
        <time>2019-09-28T12:23:55Z</time>
      </trkpt>
      <trkpt lat="42.88991" lon="0.95189">
        <ele>1259</ele>
        <time>2019-09-28T12:24:11Z</time>
      </trkpt>
      <trkpt lat="42.8899" lon="0.95202">
        <ele>1259</ele>
        <time>2019-09-28T12:24:20Z</time>
      </trkpt>
      <trkpt lat="42.88989" lon="0.95215">
        <ele>1253</ele>
        <time>2019-09-28T12:24:27Z</time>
      </trkpt>
      <trkpt lat="42.8899" lon="0.95227">
        <ele>1249</ele>
        <time>2019-09-28T12:24:40Z</time>
      </trkpt>
      <trkpt lat="42.88993" lon="0.95239">
        <ele>1249</ele>
        <time>2019-09-28T12:24:49Z</time>
      </trkpt>
      <trkpt lat="42.88997" lon="0.95251">
        <ele>1247</ele>
        <time>2019-09-28T12:25:04Z</time>
      </trkpt>
      <trkpt lat="42.88999" lon="0.95264">
        <ele>1242</ele>
        <time>2019-09-28T12:25:36Z</time>
      </trkpt>
      <trkpt lat="42.89001" lon="0.95277">
        <ele>1236</ele>
        <time>2019-09-28T12:25:51Z</time>
      </trkpt>
      <trkpt lat="42.89001" lon="0.95289">
        <ele>1236</ele>
        <time>2019-09-28T12:26:01Z</time>
      </trkpt>
      <trkpt lat="42.89002" lon="0.95302">
        <ele>1235</ele>
        <time>2019-09-28T12:26:11Z</time>
      </trkpt>
      <trkpt lat="42.89001" lon="0.95316">
        <ele>1233</ele>
        <time>2019-09-28T12:26:20Z</time>
      </trkpt>
      <trkpt lat="42.89001" lon="0.9533">
        <ele>1232</ele>
        <time>2019-09-28T12:26:26Z</time>
      </trkpt>
      <trkpt lat="42.88998" lon="0.95342">
        <ele>1235</ele>
        <time>2019-09-28T12:26:34Z</time>
      </trkpt>
      <trkpt lat="42.88994" lon="0.95355">
        <ele>1230</ele>
        <time>2019-09-28T12:27:05Z</time>
      </trkpt>
      <trkpt lat="42.88989" lon="0.95365">
        <ele>1227</ele>
        <time>2019-09-28T12:27:14Z</time>
      </trkpt>
      <trkpt lat="42.8898" lon="0.95375">
        <ele>1225</ele>
        <time>2019-09-28T12:27:28Z</time>
      </trkpt>
      <trkpt lat="42.88971" lon="0.95379">
        <ele>1224</ele>
        <time>2019-09-28T12:27:37Z</time>
      </trkpt>
      <trkpt lat="42.88962" lon="0.95384">
        <ele>1223</ele>
        <time>2019-09-28T12:27:47Z</time>
      </trkpt>
      <trkpt lat="42.88954" lon="0.9539">
        <ele>1215</ele>
        <time>2019-09-28T12:28:48Z</time>
      </trkpt>
      <trkpt lat="42.88944" lon="0.95388">
        <ele>1213</ele>
        <time>2019-09-28T12:28:55Z</time>
      </trkpt>
      <trkpt lat="42.88935" lon="0.95383">
        <ele>1212</ele>
        <time>2019-09-28T12:29:01Z</time>
      </trkpt>
      <trkpt lat="42.88927" lon="0.95376">
        <ele>1214</ele>
        <time>2019-09-28T12:29:09Z</time>
      </trkpt>
      <trkpt lat="42.88928" lon="0.95362">
        <ele>1209</ele>
        <time>2019-09-28T12:29:20Z</time>
      </trkpt>
      <trkpt lat="42.88922" lon="0.95352">
        <ele>1213</ele>
        <time>2019-09-28T12:29:34Z</time>
      </trkpt>
      <trkpt lat="42.88917" lon="0.95341">
        <ele>1210</ele>
        <time>2019-09-28T12:29:42Z</time>
      </trkpt>
      <trkpt lat="42.88912" lon="0.95331">
        <ele>1207</ele>
        <time>2019-09-28T12:29:48Z</time>
      </trkpt>
      <trkpt lat="42.88908" lon="0.95317">
        <ele>1204</ele>
        <time>2019-09-28T12:29:58Z</time>
      </trkpt>
      <trkpt lat="42.889" lon="0.95309">
        <ele>1205</ele>
        <time>2019-09-28T12:30:05Z</time>
      </trkpt>
      <trkpt lat="42.88901" lon="0.95297">
        <ele>1204</ele>
        <time>2019-09-28T12:30:16Z</time>
      </trkpt>
      <trkpt lat="42.88901" lon="0.95284">
        <ele>1200</ele>
        <time>2019-09-28T12:30:25Z</time>
      </trkpt>
      <trkpt lat="42.88903" lon="0.9527">
        <ele>1200</ele>
        <time>2019-09-28T12:30:31Z</time>
      </trkpt>
      <trkpt lat="42.889" lon="0.95255">
        <ele>1201</ele>
        <time>2019-09-28T12:30:39Z</time>
      </trkpt>
      <trkpt lat="42.88894" lon="0.95244">
        <ele>1200</ele>
        <time>2019-09-28T12:30:46Z</time>
      </trkpt>
      <trkpt lat="42.88887" lon="0.95237">
        <ele>1199</ele>
        <time>2019-09-28T12:30:53Z</time>
      </trkpt>
      <trkpt lat="42.88879" lon="0.95228">
        <ele>1198</ele>
        <time>2019-09-28T12:31:04Z</time>
      </trkpt>
      <trkpt lat="42.88872" lon="0.95218">
        <ele>1200</ele>
        <time>2019-09-28T12:31:08Z</time>
      </trkpt>
      <trkpt lat="42.88866" lon="0.9521">
        <ele>1200</ele>
        <time>2019-09-28T12:31:14Z</time>
      </trkpt>
      <trkpt lat="42.88857" lon="0.95204">
        <ele>1203</ele>
        <time>2019-09-28T12:31:19Z</time>
      </trkpt>
      <trkpt lat="42.88853" lon="0.95193">
        <ele>1200</ele>
        <time>2019-09-28T12:31:25Z</time>
      </trkpt>
      <trkpt lat="42.88843" lon="0.95186">
        <ele>1197</ele>
        <time>2019-09-28T12:31:32Z</time>
      </trkpt>
      <trkpt lat="42.8884" lon="0.95174">
        <ele>1194</ele>
        <time>2019-09-28T12:32:09Z</time>
      </trkpt>
      <trkpt lat="42.88833" lon="0.95162">
        <ele>1193</ele>
        <time>2019-09-28T12:32:14Z</time>
      </trkpt>
      <trkpt lat="42.88831" lon="0.9515">
        <ele>1190</ele>
        <time>2019-09-28T12:32:21Z</time>
      </trkpt>
      <trkpt lat="42.88829" lon="0.95138">
        <ele>1190</ele>
        <time>2019-09-28T12:32:27Z</time>
      </trkpt>
      <trkpt lat="42.88822" lon="0.95128">
        <ele>1187</ele>
        <time>2019-09-28T12:32:36Z</time>
      </trkpt>
      <trkpt lat="42.88813" lon="0.95119">
        <ele>1186</ele>
        <time>2019-09-28T12:32:44Z</time>
      </trkpt>
      <trkpt lat="42.88809" lon="0.95104">
        <ele>1185</ele>
        <time>2019-09-28T12:32:52Z</time>
      </trkpt>
      <trkpt lat="42.88803" lon="0.95094">
        <ele>1183</ele>
        <time>2019-09-28T12:33:01Z</time>
      </trkpt>
      <trkpt lat="42.88795" lon="0.95086">
        <ele>1175</ele>
        <time>2019-09-28T12:33:14Z</time>
      </trkpt>
      <trkpt lat="42.88791" lon="0.95075">
        <ele>1178</ele>
        <time>2019-09-28T12:33:24Z</time>
      </trkpt>
      <trkpt lat="42.88788" lon="0.95054">
        <ele>1174</ele>
        <time>2019-09-28T12:33:41Z</time>
      </trkpt>
      <trkpt lat="42.88787" lon="0.95041">
        <ele>1171</ele>
        <time>2019-09-28T12:33:47Z</time>
      </trkpt>
      <trkpt lat="42.88788" lon="0.95028">
        <ele>1168</ele>
        <time>2019-09-28T12:33:54Z</time>
      </trkpt>
      <trkpt lat="42.88793" lon="0.95018">
        <ele>1165</ele>
        <time>2019-09-28T12:34:02Z</time>
      </trkpt>
      <trkpt lat="42.88795" lon="0.95005">
        <ele>1162</ele>
        <time>2019-09-28T12:34:14Z</time>
      </trkpt>
      <trkpt lat="42.88797" lon="0.94992">
        <ele>1166</ele>
        <time>2019-09-28T12:34:23Z</time>
      </trkpt>
      <trkpt lat="42.88806" lon="0.94986">
        <ele>1162</ele>
        <time>2019-09-28T12:34:34Z</time>
      </trkpt>
      <trkpt lat="42.88802" lon="0.94972">
        <ele>1164</ele>
        <time>2019-09-28T12:34:40Z</time>
      </trkpt>
      <trkpt lat="42.88807" lon="0.94961">
        <ele>1154</ele>
        <time>2019-09-28T12:34:49Z</time>
      </trkpt>
      <trkpt lat="42.8881" lon="0.94948">
        <ele>1149</ele>
        <time>2019-09-28T12:34:57Z</time>
      </trkpt>
      <trkpt lat="42.88817" lon="0.94938">
        <ele>1154</ele>
        <time>2019-09-28T12:35:07Z</time>
      </trkpt>
      <trkpt lat="42.8882" lon="0.94926">
        <ele>1155</ele>
        <time>2019-09-28T12:35:14Z</time>
      </trkpt>
      <trkpt lat="42.8882" lon="0.94911">
        <ele>1156</ele>
        <time>2019-09-28T12:35:19Z</time>
      </trkpt>
      <trkpt lat="42.88818" lon="0.94899">
        <ele>1151</ele>
        <time>2019-09-28T12:35:32Z</time>
      </trkpt>
      <trkpt lat="42.88816" lon="0.94883">
        <ele>1150</ele>
        <time>2019-09-28T12:35:43Z</time>
      </trkpt>
      <trkpt lat="42.88818" lon="0.94871">
        <ele>1153</ele>
        <time>2019-09-28T12:35:50Z</time>
      </trkpt>
      <trkpt lat="42.88816" lon="0.94858">
        <ele>1154</ele>
        <time>2019-09-28T12:36:01Z</time>
      </trkpt>
      <trkpt lat="42.88817" lon="0.94845">
        <ele>1153</ele>
        <time>2019-09-28T12:36:08Z</time>
      </trkpt>
      <trkpt lat="42.88815" lon="0.94829">
        <ele>1156</ele>
        <time>2019-09-28T12:36:15Z</time>
      </trkpt>
      <trkpt lat="42.88812" lon="0.94816">
        <ele>1158</ele>
        <time>2019-09-28T12:36:24Z</time>
      </trkpt>
      <trkpt lat="42.88811" lon="0.94802">
        <ele>1158</ele>
        <time>2019-09-28T12:36:33Z</time>
      </trkpt>
      <trkpt lat="42.88814" lon="0.9479">
        <ele>1153</ele>
        <time>2019-09-28T12:36:39Z</time>
      </trkpt>
      <trkpt lat="42.88813" lon="0.94775">
        <ele>1151</ele>
        <time>2019-09-28T12:36:47Z</time>
      </trkpt>
      <trkpt lat="42.88812" lon="0.94762">
        <ele>1153</ele>
        <time>2019-09-28T12:36:56Z</time>
      </trkpt>
      <trkpt lat="42.88811" lon="0.94749">
        <ele>1153</ele>
        <time>2019-09-28T12:37:03Z</time>
      </trkpt>
      <trkpt lat="42.88816" lon="0.94737">
        <ele>1151</ele>
        <time>2019-09-28T12:37:11Z</time>
      </trkpt>
      <trkpt lat="42.88818" lon="0.94725">
        <ele>1152</ele>
        <time>2019-09-28T12:37:18Z</time>
      </trkpt>
      <trkpt lat="42.88815" lon="0.94713">
        <ele>1149</ele>
        <time>2019-09-28T12:37:33Z</time>
      </trkpt>
      <trkpt lat="42.88815" lon="0.947">
        <ele>1149</ele>
        <time>2019-09-28T12:37:46Z</time>
      </trkpt>
      <trkpt lat="42.88819" lon="0.94687">
        <ele>1145</ele>
        <time>2019-09-28T12:37:56Z</time>
      </trkpt>
      <trkpt lat="42.88817" lon="0.94675">
        <ele>1143</ele>
        <time>2019-09-28T12:38:07Z</time>
      </trkpt>
      <trkpt lat="42.88812" lon="0.94662">
        <ele>1142</ele>
        <time>2019-09-28T12:38:17Z</time>
      </trkpt>
      <trkpt lat="42.88811" lon="0.94648">
        <ele>1139</ele>
        <time>2019-09-28T12:38:26Z</time>
      </trkpt>
      <trkpt lat="42.88808" lon="0.94636">
        <ele>1138</ele>
        <time>2019-09-28T12:38:41Z</time>
      </trkpt>
      <trkpt lat="42.88808" lon="0.94623">
        <ele>1138</ele>
        <time>2019-09-28T12:38:56Z</time>
      </trkpt>
      <trkpt lat="42.88802" lon="0.94614">
        <ele>1136</ele>
        <time>2019-09-28T12:40:41Z</time>
      </trkpt>
      <trkpt lat="42.88799" lon="0.94602">
        <ele>1139</ele>
        <time>2019-09-28T12:45:20Z</time>
      </trkpt>
      <trkpt lat="42.88794" lon="0.94591">
        <ele>1139</ele>
        <time>2019-09-28T12:45:30Z</time>
      </trkpt>
      <trkpt lat="42.88786" lon="0.94582">
        <ele>1135</ele>
        <time>2019-09-28T12:45:59Z</time>
      </trkpt>
      <trkpt lat="42.88779" lon="0.94571">
        <ele>1130</ele>
        <time>2019-09-28T12:46:13Z</time>
      </trkpt>
      <trkpt lat="42.8877" lon="0.94564">
        <ele>1129</ele>
        <time>2019-09-28T12:46:22Z</time>
      </trkpt>
      <trkpt lat="42.88763" lon="0.94555">
        <ele>1130</ele>
        <time>2019-09-28T12:46:29Z</time>
      </trkpt>
      <trkpt lat="42.88756" lon="0.94547">
        <ele>1127</ele>
        <time>2019-09-28T12:46:40Z</time>
      </trkpt>
      <trkpt lat="42.88749" lon="0.94537">
        <ele>1122</ele>
        <time>2019-09-28T12:46:48Z</time>
      </trkpt>
      <trkpt lat="42.88742" lon="0.94527">
        <ele>1121</ele>
        <time>2019-09-28T12:46:59Z</time>
      </trkpt>
      <trkpt lat="42.88735" lon="0.94518">
        <ele>1122</ele>
        <time>2019-09-28T12:47:07Z</time>
      </trkpt>
      <trkpt lat="42.88727" lon="0.94509">
        <ele>1120</ele>
        <time>2019-09-28T12:47:17Z</time>
      </trkpt>
      <trkpt lat="42.88718" lon="0.94503">
        <ele>1118</ele>
        <time>2019-09-28T12:47:24Z</time>
      </trkpt>
      <trkpt lat="42.88712" lon="0.94492">
        <ele>1112</ele>
        <time>2019-09-28T12:47:33Z</time>
      </trkpt>
      <trkpt lat="42.88709" lon="0.94479">
        <ele>1112</ele>
        <time>2019-09-28T12:47:44Z</time>
      </trkpt>
      <trkpt lat="42.88705" lon="0.94468">
        <ele>1108</ele>
        <time>2019-09-28T12:47:54Z</time>
      </trkpt>
      <trkpt lat="42.887" lon="0.94458">
        <ele>1109</ele>
        <time>2019-09-28T12:48:02Z</time>
      </trkpt>
      <trkpt lat="42.88697" lon="0.94446">
        <ele>1105</ele>
        <time>2019-09-28T12:48:17Z</time>
      </trkpt>
      <trkpt lat="42.88704" lon="0.94437">
        <ele>1105</ele>
        <time>2019-09-28T12:49:12Z</time>
      </trkpt>
      <trkpt lat="42.887" lon="0.94448">
        <ele>1106</ele>
        <time>2019-09-28T12:49:36Z</time>
      </trkpt>
      <trkpt lat="42.88693" lon="0.94438">
        <ele>1103</ele>
        <time>2019-09-28T12:50:09Z</time>
      </trkpt>
      <trkpt lat="42.88687" lon="0.94427">
        <ele>1103</ele>
        <time>2019-09-28T12:50:17Z</time>
      </trkpt>
      <trkpt lat="42.88686" lon="0.94414">
        <ele>1098</ele>
        <time>2019-09-28T12:50:25Z</time>
      </trkpt>
      <trkpt lat="42.88684" lon="0.944">
        <ele>1096</ele>
        <time>2019-09-28T12:50:32Z</time>
      </trkpt>
      <trkpt lat="42.8868" lon="0.94387">
        <ele>1091</ele>
        <time>2019-09-28T12:50:40Z</time>
      </trkpt>
      <trkpt lat="42.88678" lon="0.94374">
        <ele>1094</ele>
        <time>2019-09-28T12:50:50Z</time>
      </trkpt>
      <trkpt lat="42.88678" lon="0.9436">
        <ele>1098</ele>
        <time>2019-09-28T12:50:57Z</time>
      </trkpt>
      <trkpt lat="42.88679" lon="0.94347">
        <ele>1096</ele>
        <time>2019-09-28T12:51:05Z</time>
      </trkpt>
      <trkpt lat="42.88678" lon="0.94333">
        <ele>1094</ele>
        <time>2019-09-28T12:51:12Z</time>
      </trkpt>
      <trkpt lat="42.88681" lon="0.94321">
        <ele>1092</ele>
        <time>2019-09-28T12:51:19Z</time>
      </trkpt>
      <trkpt lat="42.88679" lon="0.94309">
        <ele>1096</ele>
        <time>2019-09-28T12:51:25Z</time>
      </trkpt>
      <trkpt lat="42.88677" lon="0.94296">
        <ele>1094</ele>
        <time>2019-09-28T12:51:32Z</time>
      </trkpt>
      <trkpt lat="42.88673" lon="0.94284">
        <ele>1087</ele>
        <time>2019-09-28T12:51:41Z</time>
      </trkpt>
      <trkpt lat="42.88666" lon="0.94276">
        <ele>1088</ele>
        <time>2019-09-28T12:51:48Z</time>
      </trkpt>
      <trkpt lat="42.88662" lon="0.94265">
        <ele>1085</ele>
        <time>2019-09-28T12:51:56Z</time>
      </trkpt>
      <trkpt lat="42.88661" lon="0.94251">
        <ele>1083</ele>
        <time>2019-09-28T12:52:10Z</time>
      </trkpt>
      <trkpt lat="42.88661" lon="0.94236">
        <ele>1085</ele>
        <time>2019-09-28T12:52:17Z</time>
      </trkpt>
      <trkpt lat="42.88662" lon="0.94221">
        <ele>1088</ele>
        <time>2019-09-28T12:52:25Z</time>
      </trkpt>
      <trkpt lat="42.88662" lon="0.94207">
        <ele>1087</ele>
        <time>2019-09-28T12:52:34Z</time>
      </trkpt>
      <trkpt lat="42.88659" lon="0.94195">
        <ele>1084</ele>
        <time>2019-09-28T12:52:43Z</time>
      </trkpt>
      <trkpt lat="42.88655" lon="0.94184">
        <ele>1081</ele>
        <time>2019-09-28T12:52:50Z</time>
      </trkpt>
      <trkpt lat="42.88652" lon="0.9417">
        <ele>1081</ele>
        <time>2019-09-28T12:52:58Z</time>
      </trkpt>
      <trkpt lat="42.88648" lon="0.94159">
        <ele>1081</ele>
        <time>2019-09-28T12:53:06Z</time>
      </trkpt>
      <trkpt lat="42.88644" lon="0.94146">
        <ele>1080</ele>
        <time>2019-09-28T12:53:13Z</time>
      </trkpt>
      <trkpt lat="42.88636" lon="0.94138">
        <ele>1077</ele>
        <time>2019-09-28T12:53:20Z</time>
      </trkpt>
      <trkpt lat="42.88629" lon="0.94131">
        <ele>1074</ele>
        <time>2019-09-28T12:53:26Z</time>
      </trkpt>
      <trkpt lat="42.88619" lon="0.94131">
        <ele>1074</ele>
        <time>2019-09-28T12:53:34Z</time>
      </trkpt>
      <trkpt lat="42.8861" lon="0.94128">
        <ele>1069</ele>
        <time>2019-09-28T12:53:44Z</time>
      </trkpt>
      <trkpt lat="42.88606" lon="0.94116">
        <ele>1065</ele>
        <time>2019-09-28T12:53:53Z</time>
      </trkpt>
      <trkpt lat="42.88598" lon="0.94109">
        <ele>1062</ele>
        <time>2019-09-28T12:54:09Z</time>
      </trkpt>
      <trkpt lat="42.8859" lon="0.94116">
        <ele>1053</ele>
        <time>2019-09-28T12:54:44Z</time>
      </trkpt>
      <trkpt lat="42.88588" lon="0.9413">
        <ele>1047</ele>
        <time>2019-09-28T12:55:44Z</time>
      </trkpt>
      <trkpt lat="42.88586" lon="0.94142">
        <ele>1043</ele>
        <time>2019-09-28T12:55:52Z</time>
      </trkpt>
      <trkpt lat="42.8858" lon="0.94153">
        <ele>1043</ele>
        <time>2019-09-28T12:55:59Z</time>
      </trkpt>
      <trkpt lat="42.88576" lon="0.94164">
        <ele>1045</ele>
        <time>2019-09-28T12:56:06Z</time>
      </trkpt>
      <trkpt lat="42.88569" lon="0.94175">
        <ele>1046</ele>
        <time>2019-09-28T12:56:12Z</time>
      </trkpt>
      <trkpt lat="42.88563" lon="0.94185">
        <ele>1041</ele>
        <time>2019-09-28T12:56:20Z</time>
      </trkpt>
      <trkpt lat="42.88556" lon="0.94192">
        <ele>1034</ele>
        <time>2019-09-28T12:56:28Z</time>
      </trkpt>
      <trkpt lat="42.88547" lon="0.94198">
        <ele>1031</ele>
        <time>2019-09-28T12:56:35Z</time>
      </trkpt>
      <trkpt lat="42.88538" lon="0.94203">
        <ele>1031</ele>
        <time>2019-09-28T12:56:41Z</time>
      </trkpt>
      <trkpt lat="42.88531" lon="0.94212">
        <ele>1032</ele>
        <time>2019-09-28T12:56:48Z</time>
      </trkpt>
      <trkpt lat="42.88522" lon="0.94218">
        <ele>1026</ele>
        <time>2019-09-28T12:56:57Z</time>
      </trkpt>
      <trkpt lat="42.88512" lon="0.9422">
        <ele>1025</ele>
        <time>2019-09-28T12:57:04Z</time>
      </trkpt>
      <trkpt lat="42.88503" lon="0.94222">
        <ele>1018</ele>
        <time>2019-09-28T12:57:12Z</time>
      </trkpt>
      <trkpt lat="42.88494" lon="0.94229">
        <ele>1015</ele>
        <time>2019-09-28T12:57:20Z</time>
      </trkpt>
      <trkpt lat="42.88484" lon="0.94231">
        <ele>1014</ele>
        <time>2019-09-28T12:57:27Z</time>
      </trkpt>
      <trkpt lat="42.88475" lon="0.94231">
        <ele>1010</ele>
        <time>2019-09-28T12:57:35Z</time>
      </trkpt>
      <trkpt lat="42.88466" lon="0.94231">
        <ele>1009</ele>
        <time>2019-09-28T12:57:41Z</time>
      </trkpt>
      <trkpt lat="42.88457" lon="0.94236">
        <ele>1006</ele>
        <time>2019-09-28T12:57:48Z</time>
      </trkpt>
      <trkpt lat="42.88447" lon="0.94238">
        <ele>1003</ele>
        <time>2019-09-28T12:57:57Z</time>
      </trkpt>
      <trkpt lat="42.88438" lon="0.9424">
        <ele>1001</ele>
        <time>2019-09-28T12:58:04Z</time>
      </trkpt>
      <trkpt lat="42.88428" lon="0.94244">
        <ele>997</ele>
        <time>2019-09-28T12:58:12Z</time>
      </trkpt>
      <trkpt lat="42.88418" lon="0.94245">
        <ele>992</ele>
        <time>2019-09-28T12:58:22Z</time>
      </trkpt>
      <trkpt lat="42.88408" lon="0.94246">
        <ele>995</ele>
        <time>2019-09-28T12:58:29Z</time>
      </trkpt>
      <trkpt lat="42.88398" lon="0.94246">
        <ele>992</ele>
        <time>2019-09-28T12:58:37Z</time>
      </trkpt>
      <trkpt lat="42.88389" lon="0.94243">
        <ele>991</ele>
        <time>2019-09-28T12:58:44Z</time>
      </trkpt>
      <trkpt lat="42.88379" lon="0.94244">
        <ele>986</ele>
        <time>2019-09-28T12:58:53Z</time>
      </trkpt>
      <trkpt lat="42.88369" lon="0.94243">
        <ele>983</ele>
        <time>2019-09-28T12:59:03Z</time>
      </trkpt>
      <trkpt lat="42.88359" lon="0.94244">
        <ele>980</ele>
        <time>2019-09-28T12:59:14Z</time>
      </trkpt>
      <trkpt lat="42.8835" lon="0.94248">
        <ele>975</ele>
        <time>2019-09-28T12:59:25Z</time>
      </trkpt>
      <trkpt lat="42.88342" lon="0.94253">
        <ele>965</ele>
        <time>2019-09-28T12:59:44Z</time>
      </trkpt>
      <trkpt lat="42.88332" lon="0.94253">
        <ele>965</ele>
        <time>2019-09-28T12:59:51Z</time>
      </trkpt>
      <trkpt lat="42.88322" lon="0.94254">
        <ele>965</ele>
        <time>2019-09-28T12:59:58Z</time>
      </trkpt>
      <trkpt lat="42.88314" lon="0.94261">
        <ele>961</ele>
        <time>2019-09-28T13:00:07Z</time>
      </trkpt>
      <trkpt lat="42.88305" lon="0.94266">
        <ele>958</ele>
        <time>2019-09-28T13:00:17Z</time>
      </trkpt>
      <trkpt lat="42.88295" lon="0.94272">
        <ele>954</ele>
        <time>2019-09-28T13:00:26Z</time>
      </trkpt>
      <trkpt lat="42.88286" lon="0.94277">
        <ele>952</ele>
        <time>2019-09-28T13:00:37Z</time>
      </trkpt>
      <trkpt lat="42.88277" lon="0.9428">
        <ele>950</ele>
        <time>2019-09-28T13:00:47Z</time>
      </trkpt>
      <trkpt lat="42.88266" lon="0.94282">
        <ele>949</ele>
        <time>2019-09-28T13:00:59Z</time>
      </trkpt>
      <trkpt lat="42.88258" lon="0.94287">
        <ele>944</ele>
        <time>2019-09-28T13:01:11Z</time>
      </trkpt>
      <trkpt lat="42.88248" lon="0.94286">
        <ele>943</ele>
        <time>2019-09-28T13:01:23Z</time>
      </trkpt>
      <trkpt lat="42.88238" lon="0.94287">
        <ele>942</ele>
        <time>2019-09-28T13:01:33Z</time>
      </trkpt>
      <trkpt lat="42.8823" lon="0.94296">
        <ele>944</ele>
        <time>2019-09-28T13:01:44Z</time>
      </trkpt>
      <trkpt lat="42.88221" lon="0.94299">
        <ele>942</ele>
        <time>2019-09-28T13:24:07Z</time>
      </trkpt>
      <trkpt lat="42.88211" lon="0.943">
        <ele>943</ele>
        <time>2019-09-28T13:24:13Z</time>
      </trkpt>
      <trkpt lat="42.88202" lon="0.94303">
        <ele>938</ele>
        <time>2019-09-28T13:24:20Z</time>
      </trkpt>
      <trkpt lat="42.88193" lon="0.94305">
        <ele>936</ele>
        <time>2019-09-28T13:24:30Z</time>
      </trkpt>
      <trkpt lat="42.88183" lon="0.94307">
        <ele>937</ele>
        <time>2019-09-28T13:24:39Z</time>
      </trkpt>
      <trkpt lat="42.88175" lon="0.94314">
        <ele>940</ele>
        <time>2019-09-28T13:24:52Z</time>
      </trkpt>
      <trkpt lat="42.88166" lon="0.94313">
        <ele>927</ele>
        <time>2019-09-28T13:26:20Z</time>
      </trkpt>
      <trkpt lat="42.88155" lon="0.94316">
        <ele>929</ele>
        <time>2019-09-28T13:26:25Z</time>
      </trkpt>
      <trkpt lat="42.88148" lon="0.94323">
        <ele>925</ele>
        <time>2019-09-28T13:26:35Z</time>
      </trkpt>
      <trkpt lat="42.88143" lon="0.94335">
        <ele>922</ele>
        <time>2019-09-28T13:26:47Z</time>
      </trkpt>
      <trkpt lat="42.88136" lon="0.94344">
        <ele>918</ele>
        <time>2019-09-28T13:27:17Z</time>
      </trkpt>
      <trkpt lat="42.88128" lon="0.94353">
        <ele>919</ele>
        <time>2019-09-28T13:27:29Z</time>
      </trkpt>
      <trkpt lat="42.88118" lon="0.94354">
        <ele>920</ele>
        <time>2019-09-28T13:27:36Z</time>
      </trkpt>
      <trkpt lat="42.88111" lon="0.94347">
        <ele>917</ele>
        <time>2019-09-28T13:27:50Z</time>
      </trkpt>
      <trkpt lat="42.88105" lon="0.94337">
        <ele>921</ele>
        <time>2019-09-28T13:27:59Z</time>
      </trkpt>
      <trkpt lat="42.88097" lon="0.94329">
        <ele>927</ele>
        <time>2019-09-28T13:28:22Z</time>
      </trkpt>
      <trkpt lat="42.88089" lon="0.94325">
        <ele>922</ele>
        <time>2019-09-28T13:28:43Z</time>
      </trkpt>
      <trkpt lat="42.88098" lon="0.9433">
        <ele>919</ele>
        <time>2019-09-28T13:29:28Z</time>
      </trkpt>
      <trkpt lat="42.88095" lon="0.94318">
        <ele>917</ele>
        <time>2019-09-28T13:29:37Z</time>
      </trkpt>
      <trkpt lat="42.88098" lon="0.9433">
        <ele>921</ele>
        <time>2019-09-28T13:31:38Z</time>
      </trkpt>
      <trkpt lat="42.88102" lon="0.94341">
        <ele>920</ele>
        <time>2019-09-28T13:31:47Z</time>
      </trkpt>
      <trkpt lat="42.8811" lon="0.94348">
        <ele>920</ele>
        <time>2019-09-28T13:31:54Z</time>
      </trkpt>
      <trkpt lat="42.88118" lon="0.94355">
        <ele>913</ele>
        <time>2019-09-28T13:32:05Z</time>
      </trkpt>
      <trkpt lat="42.88127" lon="0.94359">
        <ele>916</ele>
        <time>2019-09-28T13:32:14Z</time>
      </trkpt>
      <trkpt lat="42.88135" lon="0.94362">
        <ele>914</ele>
        <time>2019-09-28T13:32:24Z</time>
      </trkpt>
      <trkpt lat="42.88142" lon="0.94371">
        <ele>914</ele>
        <time>2019-09-28T13:32:33Z</time>
      </trkpt>
      <trkpt lat="42.8815" lon="0.94378">
        <ele>911</ele>
        <time>2019-09-28T13:32:42Z</time>
      </trkpt>
      <trkpt lat="42.88158" lon="0.94384">
        <ele>910</ele>
        <time>2019-09-28T13:32:49Z</time>
      </trkpt>
      <trkpt lat="42.88164" lon="0.94394">
        <ele>908</ele>
        <time>2019-09-28T13:32:58Z</time>
      </trkpt>
      <trkpt lat="42.8817" lon="0.94404">
        <ele>911</ele>
        <time>2019-09-28T13:33:09Z</time>
      </trkpt>
      <trkpt lat="42.88172" lon="0.94417">
        <ele>913</ele>
        <time>2019-09-28T13:33:19Z</time>
      </trkpt>
      <trkpt lat="42.88178" lon="0.94427">
        <ele>914</ele>
        <time>2019-09-28T13:33:28Z</time>
      </trkpt>
      <trkpt lat="42.8818" lon="0.94439">
        <ele>912</ele>
        <time>2019-09-28T13:33:37Z</time>
      </trkpt>
      <trkpt lat="42.8818" lon="0.94453">
        <ele>910</ele>
        <time>2019-09-28T13:33:48Z</time>
      </trkpt>
      <trkpt lat="42.88177" lon="0.94466">
        <ele>909</ele>
        <time>2019-09-28T13:33:57Z</time>
      </trkpt>
      <trkpt lat="42.88174" lon="0.94478">
        <ele>911</ele>
        <time>2019-09-28T13:34:05Z</time>
      </trkpt>
      <trkpt lat="42.88172" lon="0.94491">
        <ele>910</ele>
        <time>2019-09-28T13:34:14Z</time>
      </trkpt>
      <trkpt lat="42.88168" lon="0.94503">
        <ele>909</ele>
        <time>2019-09-28T13:34:22Z</time>
      </trkpt>
      <trkpt lat="42.8816" lon="0.9451">
        <ele>909</ele>
        <time>2019-09-28T13:34:31Z</time>
      </trkpt>
      <trkpt lat="42.88153" lon="0.9452">
        <ele>905</ele>
        <time>2019-09-28T13:34:39Z</time>
      </trkpt>
      <trkpt lat="42.88146" lon="0.94529">
        <ele>905</ele>
        <time>2019-09-28T13:34:50Z</time>
      </trkpt>
      <trkpt lat="42.88139" lon="0.94537">
        <ele>903</ele>
        <time>2019-09-28T13:34:59Z</time>
      </trkpt>
      <trkpt lat="42.88131" lon="0.94545">
        <ele>901</ele>
        <time>2019-09-28T13:35:06Z</time>
      </trkpt>
      <trkpt lat="42.88122" lon="0.94552">
        <ele>902</ele>
        <time>2019-09-28T13:35:26Z</time>
      </trkpt>
      <trkpt lat="42.88115" lon="0.9456">
        <ele>898</ele>
        <time>2019-09-28T13:35:36Z</time>
      </trkpt>
      <trkpt lat="42.88104" lon="0.94559">
        <ele>896</ele>
        <time>2019-09-28T13:35:46Z</time>
      </trkpt>
      <trkpt lat="42.88097" lon="0.94568">
        <ele>894</ele>
        <time>2019-09-28T13:35:54Z</time>
      </trkpt>
      <trkpt lat="42.88088" lon="0.94572">
        <ele>888</ele>
        <time>2019-09-28T13:36:09Z</time>
      </trkpt>
      <trkpt lat="42.88079" lon="0.94578">
        <ele>887</ele>
        <time>2019-09-28T13:36:18Z</time>
      </trkpt>
      <trkpt lat="42.88072" lon="0.94586">
        <ele>885</ele>
        <time>2019-09-28T13:36:27Z</time>
      </trkpt>
      <trkpt lat="42.88063" lon="0.94593">
        <ele>887</ele>
        <time>2019-09-28T13:36:34Z</time>
      </trkpt>
      <trkpt lat="42.88055" lon="0.94601">
        <ele>889</ele>
        <time>2019-09-28T13:36:44Z</time>
      </trkpt>
      <trkpt lat="42.88048" lon="0.94607">
        <ele>884</ele>
        <time>2019-09-28T13:36:52Z</time>
      </trkpt>
      <trkpt lat="42.88038" lon="0.94612">
        <ele>879</ele>
        <time>2019-09-28T13:37:01Z</time>
      </trkpt>
      <trkpt lat="42.88029" lon="0.94617">
        <ele>872</ele>
        <time>2019-09-28T13:37:09Z</time>
      </trkpt>
      <trkpt lat="42.88018" lon="0.94618">
        <ele>871</ele>
        <time>2019-09-28T13:37:19Z</time>
      </trkpt>
      <trkpt lat="42.88008" lon="0.94621">
        <ele>870</ele>
        <time>2019-09-28T13:37:28Z</time>
      </trkpt>
      <trkpt lat="42.87999" lon="0.94619">
        <ele>869</ele>
        <time>2019-09-28T13:37:36Z</time>
      </trkpt>
      <trkpt lat="42.8799" lon="0.94622">
        <ele>867</ele>
        <time>2019-09-28T13:37:51Z</time>
      </trkpt>
      <trkpt lat="42.87982" lon="0.94627">
        <ele>866</ele>
        <time>2019-09-28T13:37:59Z</time>
      </trkpt>
      <trkpt lat="42.87973" lon="0.94632">
        <ele>865</ele>
        <time>2019-09-28T13:38:07Z</time>
      </trkpt>
      <trkpt lat="42.87965" lon="0.94638">
        <ele>863</ele>
        <time>2019-09-28T13:38:17Z</time>
      </trkpt>
      <trkpt lat="42.87956" lon="0.94645">
        <ele>861</ele>
        <time>2019-09-28T13:38:27Z</time>
      </trkpt>
      <trkpt lat="42.87948" lon="0.94652">
        <ele>857</ele>
        <time>2019-09-28T13:38:36Z</time>
      </trkpt>
      <trkpt lat="42.8794" lon="0.94659">
        <ele>853</ele>
        <time>2019-09-28T13:38:42Z</time>
      </trkpt>
      <trkpt lat="42.87932" lon="0.94666">
        <ele>859</ele>
        <time>2019-09-28T13:38:52Z</time>
      </trkpt>
      <trkpt lat="42.87924" lon="0.94671">
        <ele>860</ele>
        <time>2019-09-28T13:38:59Z</time>
      </trkpt>
      <trkpt lat="42.87916" lon="0.9468">
        <ele>859</ele>
        <time>2019-09-28T13:39:09Z</time>
      </trkpt>
      <trkpt lat="42.87907" lon="0.94685">
        <ele>854</ele>
        <time>2019-09-28T13:39:15Z</time>
      </trkpt>
      <trkpt lat="42.87899" lon="0.94691">
        <ele>852</ele>
        <time>2019-09-28T13:39:21Z</time>
      </trkpt>
      <trkpt lat="42.87891" lon="0.94696">
        <ele>849</ele>
        <time>2019-09-28T13:39:30Z</time>
      </trkpt>
      <trkpt lat="42.87882" lon="0.94701">
        <ele>844</ele>
        <time>2019-09-28T13:39:41Z</time>
      </trkpt>
      <trkpt lat="42.87873" lon="0.94704">
        <ele>846</ele>
        <time>2019-09-28T13:39:53Z</time>
      </trkpt>
      <trkpt lat="42.87864" lon="0.9471">
        <ele>843</ele>
        <time>2019-09-28T13:40:01Z</time>
      </trkpt>
      <trkpt lat="42.87854" lon="0.94716">
        <ele>841</ele>
        <time>2019-09-28T13:40:10Z</time>
      </trkpt>
      <trkpt lat="42.87845" lon="0.9472">
        <ele>837</ele>
        <time>2019-09-28T13:40:20Z</time>
      </trkpt>
      <trkpt lat="42.87836" lon="0.94724">
        <ele>836</ele>
        <time>2019-09-28T13:40:31Z</time>
      </trkpt>
      <trkpt lat="42.87826" lon="0.94726">
        <ele>834</ele>
        <time>2019-09-28T13:40:42Z</time>
      </trkpt>
      <trkpt lat="42.87816" lon="0.94726">
        <ele>832</ele>
        <time>2019-09-28T13:40:57Z</time>
      </trkpt>
      <trkpt lat="42.87806" lon="0.94728">
        <ele>831</ele>
        <time>2019-09-28T13:41:13Z</time>
      </trkpt>
      <trkpt lat="42.87797" lon="0.9473">
        <ele>828</ele>
        <time>2019-09-28T13:41:22Z</time>
      </trkpt>
      <trkpt lat="42.87789" lon="0.94738">
        <ele>825</ele>
        <time>2019-09-28T13:42:38Z</time>
      </trkpt>
      <trkpt lat="42.87782" lon="0.94746">
        <ele>827</ele>
        <time>2019-09-28T13:46:41Z</time>
      </trkpt>
      <trkpt lat="42.87783" lon="0.94758">
        <ele>825</ele>
        <time>2019-09-28T13:46:48Z</time>
      </trkpt>
      <trkpt lat="42.87782" lon="0.94771">
        <ele>824</ele>
        <time>2019-09-28T13:46:56Z</time>
      </trkpt>
      <trkpt lat="42.87784" lon="0.94783">
        <ele>820</ele>
        <time>2019-09-28T13:47:06Z</time>
      </trkpt>
      <trkpt lat="42.87785" lon="0.94796">
        <ele>820</ele>
        <time>2019-09-28T13:47:14Z</time>
      </trkpt>
      <trkpt lat="42.87785" lon="0.94809">
        <ele>815</ele>
        <time>2019-09-28T13:47:26Z</time>
      </trkpt>
      <trkpt lat="42.8778" lon="0.94821">
        <ele>809</ele>
        <time>2019-09-28T13:47:45Z</time>
      </trkpt>
      <trkpt lat="42.87773" lon="0.94831">
        <ele>808</ele>
        <time>2019-09-28T13:48:01Z</time>
      </trkpt>
      <trkpt lat="42.87764" lon="0.94839">
        <ele>803</ele>
        <time>2019-09-28T13:48:21Z</time>
      </trkpt>
      <trkpt lat="42.87755" lon="0.94845">
        <ele>800</ele>
        <time>2019-09-28T13:48:31Z</time>
      </trkpt>
      <trkpt lat="42.87746" lon="0.9485">
        <ele>797</ele>
        <time>2019-09-28T13:48:46Z</time>
      </trkpt>
      <trkpt lat="42.87739" lon="0.9486">
        <ele>795</ele>
        <time>2019-09-28T13:49:11Z</time>
      </trkpt>
      <trkpt lat="42.87741" lon="0.94875">
        <ele>787</ele>
        <time>2019-09-28T13:49:46Z</time>
      </trkpt>
      <trkpt lat="42.87742" lon="0.94888">
        <ele>786</ele>
        <time>2019-09-28T13:49:54Z</time>
      </trkpt>
      <trkpt lat="42.87742" lon="0.94901">
        <ele>785</ele>
        <time>2019-09-28T13:49:59Z</time>
      </trkpt>
      <trkpt lat="42.87748" lon="0.94916">
        <ele>776</ele>
        <time>2019-09-28T13:50:25Z</time>
      </trkpt>
      <trkpt lat="42.87746" lon="0.94928">
        <ele>777</ele>
        <time>2019-09-28T13:50:32Z</time>
      </trkpt>
      <trkpt lat="42.87741" lon="0.94939">
        <ele>775</ele>
        <time>2019-09-28T13:50:40Z</time>
      </trkpt>
      <trkpt lat="42.87733" lon="0.94949">
        <ele>773</ele>
        <time>2019-09-28T13:50:48Z</time>
      </trkpt>
      <trkpt lat="42.87728" lon="0.9496">
        <ele>771</ele>
        <time>2019-09-28T13:50:55Z</time>
      </trkpt>
      <trkpt lat="42.87725" lon="0.94972">
        <ele>768</ele>
        <time>2019-09-28T13:51:05Z</time>
      </trkpt>
      <trkpt lat="42.87722" lon="0.94985">
        <ele>768</ele>
        <time>2019-09-28T13:51:16Z</time>
      </trkpt>
      <trkpt lat="42.87713" lon="0.94991">
        <ele>770</ele>
        <time>2019-09-28T13:51:26Z</time>
      </trkpt>
      <trkpt lat="42.87704" lon="0.94991">
        <ele>770</ele>
        <time>2019-09-28T13:51:35Z</time>
      </trkpt>
      <trkpt lat="42.87694" lon="0.94994">
        <ele>767</ele>
        <time>2019-09-28T13:51:42Z</time>
      </trkpt>
      <trkpt lat="42.87684" lon="0.94997">
        <ele>763</ele>
        <time>2019-09-28T13:51:51Z</time>
      </trkpt>
      <trkpt lat="42.87675" lon="0.95">
        <ele>757</ele>
        <time>2019-09-28T13:52:00Z</time>
      </trkpt>
      <trkpt lat="42.87666" lon="0.95003">
        <ele>753</ele>
        <time>2019-09-28T13:52:06Z</time>
      </trkpt>
      <trkpt lat="42.87658" lon="0.95009">
        <ele>755</ele>
        <time>2019-09-28T13:52:13Z</time>
      </trkpt>
      <trkpt lat="42.87654" lon="0.95025">
        <ele>750</ele>
        <time>2019-09-28T13:52:22Z</time>
      </trkpt>
      <trkpt lat="42.87647" lon="0.95033">
        <ele>754</ele>
        <time>2019-09-28T13:52:31Z</time>
      </trkpt>
      <trkpt lat="42.87642" lon="0.95043">
        <ele>752</ele>
        <time>2019-09-28T13:52:39Z</time>
      </trkpt>
      <trkpt lat="42.87636" lon="0.95052">
        <ele>748</ele>
        <time>2019-09-28T13:52:46Z</time>
      </trkpt>
      <trkpt lat="42.87632" lon="0.95064">
        <ele>750</ele>
        <time>2019-09-28T13:52:54Z</time>
      </trkpt>
      <trkpt lat="42.87626" lon="0.95075">
        <ele>749</ele>
        <time>2019-09-28T13:53:01Z</time>
      </trkpt>
      <trkpt lat="42.87621" lon="0.95086">
        <ele>751</ele>
        <time>2019-09-28T13:53:09Z</time>
      </trkpt>
      <trkpt lat="42.87614" lon="0.95096">
        <ele>751</ele>
        <time>2019-09-28T13:53:16Z</time>
      </trkpt>
      <trkpt lat="42.87608" lon="0.95106">
        <ele>750</ele>
        <time>2019-09-28T13:53:26Z</time>
      </trkpt>
      <trkpt lat="42.87603" lon="0.95118">
        <ele>749</ele>
        <time>2019-09-28T13:53:33Z</time>
      </trkpt>
      <trkpt lat="42.87596" lon="0.95128">
        <ele>752</ele>
        <time>2019-09-28T13:53:41Z</time>
      </trkpt>
      <trkpt lat="42.87593" lon="0.9514">
        <ele>755</ele>
        <time>2019-09-28T13:53:48Z</time>
      </trkpt>
      <trkpt lat="42.8759" lon="0.95152">
        <ele>756</ele>
        <time>2019-09-28T13:53:56Z</time>
      </trkpt>
      <trkpt lat="42.87584" lon="0.95163">
        <ele>755</ele>
        <time>2019-09-28T13:54:05Z</time>
      </trkpt>
      <trkpt lat="42.87578" lon="0.95172">
        <ele>749</ele>
        <time>2019-09-28T13:54:14Z</time>
      </trkpt>
      <trkpt lat="42.87573" lon="0.95183">
        <ele>748</ele>
        <time>2019-09-28T13:54:22Z</time>
      </trkpt>
      <trkpt lat="42.8757" lon="0.95195">
        <ele>750</ele>
        <time>2019-09-28T13:54:30Z</time>
      </trkpt>
      <trkpt lat="42.87566" lon="0.95207">
        <ele>751</ele>
        <time>2019-09-28T13:54:39Z</time>
      </trkpt>
      <trkpt lat="42.87564" lon="0.95219">
        <ele>749</ele>
        <time>2019-09-28T13:54:47Z</time>
      </trkpt>
      <trkpt lat="42.87561" lon="0.95232">
        <ele>744</ele>
        <time>2019-09-28T13:54:56Z</time>
      </trkpt>
      <trkpt lat="42.87561" lon="0.95246">
        <ele>744</ele>
        <time>2019-09-28T13:55:04Z</time>
      </trkpt>
      <trkpt lat="42.87563" lon="0.95258">
        <ele>743</ele>
        <time>2019-09-28T13:55:13Z</time>
      </trkpt>
      <trkpt lat="42.87565" lon="0.95271">
        <ele>743</ele>
        <time>2019-09-28T13:55:22Z</time>
      </trkpt>
      <trkpt lat="42.87564" lon="0.95285">
        <ele>746</ele>
        <time>2019-09-28T13:55:30Z</time>
      </trkpt>
      <trkpt lat="42.87556" lon="0.95291">
        <ele>745</ele>
        <time>2019-09-28T13:55:37Z</time>
      </trkpt>
      <trkpt lat="42.87546" lon="0.95293">
        <ele>740</ele>
        <time>2019-09-28T13:55:47Z</time>
      </trkpt>
      <trkpt lat="42.87537" lon="0.95295">
        <ele>745</ele>
        <time>2019-09-28T13:55:58Z</time>
      </trkpt>
      <trkpt lat="42.87527" lon="0.95298">
        <ele>750</ele>
        <time>2019-09-28T13:56:09Z</time>
      </trkpt>
      <trkpt lat="42.87518" lon="0.95299">
        <ele>749</ele>
        <time>2019-09-28T13:56:16Z</time>
      </trkpt>
      <trkpt lat="42.87509" lon="0.95303">
        <ele>745</ele>
        <time>2019-09-28T13:56:23Z</time>
      </trkpt>
      <trkpt lat="42.87499" lon="0.95309">
        <ele>743</ele>
        <time>2019-09-28T13:56:30Z</time>
      </trkpt>
      <trkpt lat="42.87491" lon="0.95314">
        <ele>737</ele>
        <time>2019-09-28T13:56:40Z</time>
      </trkpt>
      <trkpt lat="42.87485" lon="0.95323">
        <ele>733</ele>
        <time>2019-09-28T13:56:50Z</time>
      </trkpt>
      <trkpt lat="42.87477" lon="0.95331">
        <ele>732</ele>
        <time>2019-09-28T13:56:58Z</time>
      </trkpt>
      <trkpt lat="42.87478" lon="0.95344">
        <ele>732</ele>
        <time>2019-09-28T13:57:06Z</time>
      </trkpt>
      <trkpt lat="42.87479" lon="0.95358">
        <ele>731</ele>
        <time>2019-09-28T13:57:15Z</time>
      </trkpt>
      <trkpt lat="42.87482" lon="0.9537">
        <ele>734</ele>
        <time>2019-09-28T13:57:23Z</time>
      </trkpt>
      <trkpt lat="42.87477" lon="0.9538">
        <ele>731</ele>
        <time>2019-09-28T13:57:29Z</time>
      </trkpt>
      <trkpt lat="42.87479" lon="0.95392">
        <ele>735</ele>
        <time>2019-09-28T13:57:37Z</time>
      </trkpt>
      <trkpt lat="42.87476" lon="0.95405">
        <ele>736</ele>
        <time>2019-09-28T13:57:45Z</time>
      </trkpt>
      <trkpt lat="42.87471" lon="0.95416">
        <ele>734</ele>
        <time>2019-09-28T13:57:52Z</time>
      </trkpt>
      <trkpt lat="42.87464" lon="0.95425">
        <ele>733</ele>
        <time>2019-09-28T13:58:01Z</time>
      </trkpt>
      <trkpt lat="42.87458" lon="0.95435">
        <ele>734</ele>
        <time>2019-09-28T13:58:10Z</time>
      </trkpt>
      <trkpt lat="42.87449" lon="0.95441">
        <ele>732</ele>
        <time>2019-09-28T13:58:23Z</time>
      </trkpt>
    </trkseg>
  </trk>
</gpx>